Home > Products > Valid Products > TAF

000
FTUS41 KCTP 240926 AAA
TAFBFD
TAF AMD
KBFD 240926Z 2409/2506 16014G24KT P6SM OVC011 WS020/17052KT
     FM241200 18012KT 6SM BR OVC015 WS020/17052KT
     FM241600 19015G30KT P6SM OVC035 WS020/21050KT
     FM250200 24013KT P6SM OVC050=



000
FTUS41 KCTP 240926 AAA
TAFUNV
TAF AMD
KUNV 240926Z 2409/2506 22004KT P6SM OVC008 WS015/17045KT
     FM241600 21012G23KT P6SM BKN035
     FM250000 25015KT P6SM BKN050=



000
FTUS41 KCTP 240926 AAA
TAFJST
TAF AMD
KJST 240926Z 2409/2506 16017KT P6SM BKN008 OVC045 WS020/22050KT
     FM241400 20014G24KT P6SM BKN045
     FM241700 21017G33KT P6SM BKN045
     FM250200 21015KT P6SM BKN025=



000
FTUS41 KCTP 240926 AAA
TAFAOO
TAF AMD
KAOO 240926Z 2409/2506 20015G22KT P6SM BKN009 OVC014 WS012/17045KT
     FM241300 20010KT P6SM BKN045
     FM241700 20014G24KT P6SM BKN045
     FM250000 25015KT P6SM BKN050=



000
FTUS41 KCTP 240926 AAA
TAFJST
TAF AMD
KJST 240926Z 2409/2506 16017KT P6SM BKN008 OVC045 WS020/22050KT
     FM241400 20014G24KT P6SM BKN045
     FM241700 21017G33KT P6SM BKN045
     FM250200 21015KT P6SM BKN025=



000
FTUS41 KCTP 240926 AAA
TAFBFD
TAF AMD
KBFD 240926Z 2409/2506 16014G24KT P6SM OVC011 WS020/17052KT
     FM241200 18012KT 6SM BR OVC015 WS020/17052KT
     FM241600 19015G30KT P6SM OVC035 WS020/21050KT
     FM250200 24013KT P6SM OVC050=



000
FTUS41 KCTP 240926 AAA
TAFIPT
TAF AMD
KIPT 240926Z 2409/2506 VRB04KT 6SM -RA BR OVC011 WS015/17045KT
     FM241100 12007KT 3SM -DZ BR OVC006 WS015/20040KT
     FM241700 18010G21KT P6SM SCT007 BKN035
     FM242300 25011KT P6SM BKN050=



000
FTUS41 KCTP 240926 AAA
TAFUNV
TAF AMD
KUNV 240926Z 2409/2506 22004KT P6SM OVC008 WS015/17045KT
     FM241600 21012G23KT P6SM BKN035
     FM250000 25015KT P6SM BKN050=



000
FTUS41 KCTP 240926 AAA
TAFAOO
TAF AMD
KAOO 240926Z 2409/2506 20015G22KT P6SM BKN009 OVC014 WS012/17045KT
     FM241300 20010KT P6SM BKN045
     FM241700 20014G24KT P6SM BKN045
     FM250000 25015KT P6SM BKN050=



000
FTUS41 KCTP 240926 AAA
TAFIPT
TAF AMD
KIPT 240926Z 2409/2506 VRB04KT 6SM -RA BR OVC011 WS015/17045KT
     FM241100 12007KT 3SM -DZ BR OVC006 WS015/20040KT
     FM241700 18010G21KT P6SM SCT007 BKN035
     FM242300 25011KT P6SM BKN050=



000
FTUS41 KCTP 240926 AAA
TAFMDT
TAF AMD
KMDT 240926Z 2409/2506 16008KT P6SM OVC012 WS020/16042KT
     FM241100 17006KT 3SM -DZ BR OVC007
     FM241600 20010G20KT P6SM SCT035
     FM250300 27011KT P6SM SKC=



000
FTUS41 KCTP 240926 AAA
TAFMDT
TAF AMD
KMDT 240926Z 2409/2506 16008KT P6SM OVC012 WS020/16042KT
     FM241100 17006KT 3SM -DZ BR OVC007
     FM241600 20010G20KT P6SM SCT035
     FM250300 27011KT P6SM SKC=



000
FTUS41 KCTP 240542
TAFJST
TAF
KJST 240542Z 2406/2506 14016G24KT P6SM -RA BKN007 OVC015
      WS015/18048KT
     FM240900 18012G22KT P6SM SCT025 OVC045
     FM241400 20014G24KT P6SM BKN045
     FM241700 21017G33KT P6SM BKN045=



000
FTUS41 KCTP 240542
TAFAOO
TAF
KAOO 240542Z 2406/2506 13012G19KT 3SM RA BR SCT008 BKN014 OVC035
      WS012/17045KT
     FM241300 20010KT P6SM BKN045
     FM241700 20014G24KT P6SM BKN045=



000
FTUS41 KCTP 240542
TAFBFD
TAF
KBFD 240542Z 2406/2506 14016G22KT 5SM -RA BR OVC009 WS020/17062KT
     FM240800 17012KT 3SM -RA BR OVC004 WS020/17052KT
     FM241200 18012KT 6SM BR OVC015 WS020/17052KT
     FM241600 19015G30KT P6SM OVC035=



000
FTUS41 KCTP 240542
TAFIPT
TAF
KIPT 240542Z 2406/2506 10008KT P6SM RA BKN013 OVC019 WS015/17045KT
     FM241100 12007KT 3SM -DZ BR OVC006 WS015/20040KT
     FM241700 18010G21KT P6SM SCT007 BKN035=



000
FTUS41 KCTP 240542
TAFUNV
TAF
KUNV 240542Z 2406/2506 06006KT P6SM RA OVC014 WS015/17045KT
     FM241600 21012G23KT P6SM BKN035=



000
FTUS41 KCTP 240542
TAFMDT
TAF
KMDT 240542Z 2406/2506 00000KT 4SM RA BR OVC008 WS020/16042KT
     FM241100 17006KT 3SM -DZ BR OVC007
     FM241600 20010G20KT P6SM SCT035=



000
FTUS41 KCTP 240542
TAFJST
TAF
KJST 240542Z 2406/2506 14016G24KT P6SM -RA BKN007 OVC015
      WS015/18048KT
     FM240900 18012G22KT P6SM SCT025 OVC045
     FM241400 20014G24KT P6SM BKN045
     FM241700 21017G33KT P6SM BKN045=



000
FTUS41 KCTP 240542
TAFMDT
TAF
KMDT 240542Z 2406/2506 00000KT 4SM RA BR OVC008 WS020/16042KT
     FM241100 17006KT 3SM -DZ BR OVC007
     FM241600 20010G20KT P6SM SCT035=



000
FTUS41 KCTP 240542
TAFBFD
TAF
KBFD 240542Z 2406/2506 14016G22KT 5SM -RA BR OVC009 WS020/17062KT
     FM240800 17012KT 3SM -RA BR OVC004 WS020/17052KT
     FM241200 18012KT 6SM BR OVC015 WS020/17052KT
     FM241600 19015G30KT P6SM OVC035=



000
FTUS41 KCTP 240542
TAFAOO
TAF
KAOO 240542Z 2406/2506 13012G19KT 3SM RA BR SCT008 BKN014 OVC035
      WS012/17045KT
     FM241300 20010KT P6SM BKN045
     FM241700 20014G24KT P6SM BKN045=



000
FTUS41 KCTP 240542
TAFIPT
TAF
KIPT 240542Z 2406/2506 10008KT P6SM RA BKN013 OVC019 WS015/17045KT
     FM241100 12007KT 3SM -DZ BR OVC006 WS015/20040KT
     FM241700 18010G21KT P6SM SCT007 BKN035=



000
FTUS41 KCTP 240542
TAFUNV
TAF
KUNV 240542Z 2406/2506 06006KT P6SM RA OVC014 WS015/17045KT
     FM241600 21012G23KT P6SM BKN035=



000
FTUS41 KCTP 240441 AAE
TAFJST
TAF AMD
KJST 240441Z 2405/2424 14015G27KT 5SM -RA OVC008 WS015/17055KT
     FM240600 16015G27KT 4SM -RA BR OVC005 WS015/18048KT
     FM240900 18012G22KT P6SM SCT025 OVC045
     FM241400 20014G24KT P6SM BKN045
     FM241700 21017G33KT P6SM BKN045=



000
FTUS41 KCTP 240441 AAE
TAFJST
TAF AMD
KJST 240441Z 2405/2424 14015G27KT 5SM -RA OVC008 WS015/17055KT
     FM240600 16015G27KT 4SM -RA BR OVC005 WS015/18048KT
     FM240900 18012G22KT P6SM SCT025 OVC045
     FM241400 20014G24KT P6SM BKN045
     FM241700 21017G33KT P6SM BKN045=



000
FTUS41 KCTP 240441 AAE
TAFJST
TAF AMD
KJST 240441Z 2405/2424 14015G27KT 5SM -RA OVC008 WS015/17055KT
     FM240600 16015G27KT 4SM -RA BR OVC005 WS015/18048KT
     FM240900 18012G22KT P6SM SCT025 OVC045
     FM241400 20014G24KT P6SM BKN045
     FM241700 21017G33KT P6SM BKN045=



000
FTUS41 KCTP 240441 AAE
TAFJST
TAF AMD
KJST 240441Z 2405/2424 14015G27KT 5SM -RA OVC008 WS015/17055KT
     FM240600 16015G27KT 4SM -RA BR OVC005 WS015/18048KT
     FM240900 18012G22KT P6SM SCT025 OVC045
     FM241400 20014G24KT P6SM BKN045
     FM241700 21017G33KT P6SM BKN045=



000
FTUS41 KCTP 240331 AAB
TAFMDT
TAF AMD
KMDT 240331Z 2404/2424 13007KT P6SM -RA SCT025 OVC050
     FM240400 13007KT 6SM -RA BR SCT015 OVC020 WS009/16032KT
     FM240530 14010G20KT 3SM -RA BR OVC007 WS020/16042KT
     FM241100 17006KT 3SM -DZ BR OVC007
     FM241600 20010G20KT P6SM SCT035=



000
FTUS41 KCTP 240331 AAB
TAFMDT
TAF AMD
KMDT 240331Z 2404/2424 13007KT P6SM -RA SCT025 OVC050
     FM240400 13007KT 6SM -RA BR SCT015 OVC020 WS009/16032KT
     FM240530 14010G20KT 3SM -RA BR OVC007 WS020/16042KT
     FM241100 17006KT 3SM -DZ BR OVC007
     FM241600 20010G20KT P6SM SCT035=



000
FTUS41 KCTP 240325 AAA
TAFMDT
TAF AMD
KMDT 240325Z 2403/2424 13007KT P6SM -RA SCT025 OVC050
     FM240400 13007KT 6SM -RA BR SCT015 OVC020 WS009/16032KT
     FM240530 14008KT 3SM -RA BR OVC007 WS020/16042KT
     FM241100 17006KT 3SM -DZ BR OVC007
     FM241600 20010G20KT P6SM SCT035=



000
FTUS41 KCTP 240325 AAA
TAFMDT
TAF AMD
KMDT 240325Z 2403/2424 13007KT P6SM -RA SCT025 OVC050
     FM240400 13007KT 6SM -RA BR SCT015 OVC020 WS009/16032KT
     FM240530 14008KT 3SM -RA BR OVC007 WS020/16042KT
     FM241100 17006KT 3SM -DZ BR OVC007
     FM241600 20010G20KT P6SM SCT035=



000
FTUS41 KCTP 240325 AAA
TAFMDT
TAF AMD
KMDT 240325Z 2403/2424 13007KT P6SM -RA SCT025 OVC050
     FM240400 13007KT 6SM -RA BR SCT015 OVC020 WS009/16032KT
     FM240530 14008KT 3SM -RA BR OVC007 WS020/16042KT
     FM241100 17006KT 3SM -DZ BR OVC007
     FM241600 20010G20KT P6SM SCT035=



000
FTUS41 KCTP 240325 AAA
TAFMDT
TAF AMD
KMDT 240325Z 2403/2424 13007KT P6SM -RA SCT025 OVC050
     FM240400 13007KT 6SM -RA BR SCT015 OVC020 WS009/16032KT
     FM240530 14008KT 3SM -RA BR OVC007 WS020/16042KT
     FM241100 17006KT 3SM -DZ BR OVC007
     FM241600 20010G20KT P6SM SCT035=



000
FTUS41 KCTP 240322 AAA
TAFIPT
TAF AMD
KIPT 240322Z 2403/2424 10009KT P6SM OVC035
     FM240430 11009G18KT P6SM -RA OVC025 WS015/17040KT
     FM240600 11011G23KT 3SM -RA BR OVC007 WS015/17045KT
     FM241100 12007KT 3SM -DZ BR OVC006 WS015/20040KT
     FM241700 18010G21KT P6SM SCT007 BKN035=



000
FTUS41 KCTP 240322 AAA
TAFIPT
TAF AMD
KIPT 240322Z 2403/2424 10009KT P6SM OVC035
     FM240430 11009G18KT P6SM -RA OVC025 WS015/17040KT
     FM240600 11011G23KT 3SM -RA BR OVC007 WS015/17045KT
     FM241100 12007KT 3SM -DZ BR OVC006 WS015/20040KT
     FM241700 18010G21KT P6SM SCT007 BKN035=



000
FTUS41 KCTP 240322 AAA
TAFIPT
TAF AMD
KIPT 240322Z 2403/2424 10009KT P6SM OVC035
     FM240430 11009G18KT P6SM -RA OVC025 WS015/17040KT
     FM240600 11011G23KT 3SM -RA BR OVC007 WS015/17045KT
     FM241100 12007KT 3SM -DZ BR OVC006 WS015/20040KT
     FM241700 18010G21KT P6SM SCT007 BKN035=



000
FTUS41 KCTP 240319 AAB
TAFUNV
TAF AMD
KUNV 240319Z 2403/2424 16008G16KT P6SM OVC025 WS012/17038KT
     FM240345 16009G18KT 6SM -RA BR OVC015 WS012/17042KT
     FM240600 17009G18KT 3SM -RA BR OVC007 WS015/17045KT
     FM241600 21012G23KT P6SM BKN035=



000
FTUS41 KCTP 240319 AAB
TAFUNV
TAF AMD
KUNV 240319Z 2403/2424 16008G16KT P6SM OVC025 WS012/17038KT
     FM240345 16009G18KT 6SM -RA BR OVC015 WS012/17042KT
     FM240600 17009G18KT 3SM -RA BR OVC007 WS015/17045KT
     FM241600 21012G23KT P6SM BKN035=



000
FTUS41 KCTP 240319 AAB
TAFUNV
TAF AMD
KUNV 240319Z 2403/2424 16008G16KT P6SM OVC025 WS012/17038KT
     FM240345 16009G18KT 6SM -RA BR OVC015 WS012/17042KT
     FM240600 17009G18KT 3SM -RA BR OVC007 WS015/17045KT
     FM241600 21012G23KT P6SM BKN035=



000
FTUS41 KCTP 240315 AAD
TAFAOO
TAF AMD
KAOO 240315Z 2403/2424 16011G20KT P6SM -RA OVC015 WS012/17045KT
     FM240530 17010G18KT 4SM -RA BR OVC007 WS012/17045KT
     FM241300 20010KT P6SM BKN045
     FM241700 20014G24KT P6SM BKN045=



000
FTUS41 KCTP 240315 AAD
TAFAOO
TAF AMD
KAOO 240315Z 2403/2424 16011G20KT P6SM -RA OVC015 WS012/17045KT
     FM240530 17010G18KT 4SM -RA BR OVC007 WS012/17045KT
     FM241300 20010KT P6SM BKN045
     FM241700 20014G24KT P6SM BKN045=



000
FTUS41 KCTP 240312 AAD
TAFJST
TAF AMD
KJST 240312Z 2403/2424 15016G28KT 6SM -RA OVC015 WS015/17055KT
     FM240430 15015G28KT 4SM -RA BR OVC007 WS015/17055KT
     FM240600 17012G20KT 2SM -RA BR OVC002 WS015/18048KT
     FM241400 20014G24KT P6SM BKN045
     FM241700 21017G33KT P6SM BKN045=



000
FTUS41 KCTP 240312 AAD
TAFJST
TAF AMD
KJST 240312Z 2403/2424 15016G28KT 6SM -RA OVC015 WS015/17055KT
     FM240430 15015G28KT 4SM -RA BR OVC007 WS015/17055KT
     FM240600 17012G20KT 2SM -RA BR OVC002 WS015/18048KT
     FM241400 20014G24KT P6SM BKN045
     FM241700 21017G33KT P6SM BKN045=



000
FTUS41 KCTP 240312 AAD
TAFJST
TAF AMD
KJST 240312Z 2403/2424 15016G28KT 6SM -RA OVC015 WS015/17055KT
     FM240430 15015G28KT 4SM -RA BR OVC007 WS015/17055KT
     FM240600 17012G20KT 2SM -RA BR OVC002 WS015/18048KT
     FM241400 20014G24KT P6SM BKN045
     FM241700 21017G33KT P6SM BKN045=



000
FTUS41 KCTP 240310 AAC
TAFBFD
TAF AMD
KBFD 240310Z 2403/2424 15015G25KT P6SM SCT025 OVC060
     FM240340 15015G25KT 6SM -RA OVC025 WS010/16040KT
     FM240530 15014G24KT 3SM -RA BR OVC008 WS020/17062KT
     FM240800 17012KT 3SM -RA BR OVC004 WS020/17052KT
     FM241600 19015G30KT P6SM OVC035=



000
FTUS41 KCTP 240310 AAC
TAFBFD
TAF AMD
KBFD 240310Z 2403/2424 15015G25KT P6SM SCT025 OVC060
     FM240340 15015G25KT 6SM -RA OVC025 WS010/16040KT
     FM240530 15014G24KT 3SM -RA BR OVC008 WS020/17062KT
     FM240800 17012KT 3SM -RA BR OVC004 WS020/17052KT
     FM241600 19015G30KT P6SM OVC035=



000
FTUS41 KCTP 240310 AAC
TAFBFD
TAF AMD
KBFD 240310Z 2403/2424 15015G25KT P6SM SCT025 OVC060
     FM240340 15015G25KT 6SM -RA OVC025 WS010/16040KT
     FM240530 15014G24KT 3SM -RA BR OVC008 WS020/17062KT
     FM240800 17012KT 3SM -RA BR OVC004 WS020/17052KT
     FM241600 19015G30KT P6SM OVC035=



000
FTUS41 KCTP 240310 AAC
TAFBFD
TAF AMD
KBFD 240310Z 2403/2424 15015G25KT P6SM SCT025 OVC060
     FM240340 15015G25KT 6SM -RA OVC025 WS010/16040KT
     FM240530 15014G24KT 3SM -RA BR OVC008 WS020/17062KT
     FM240800 17012KT 3SM -RA BR OVC004 WS020/17052KT
     FM241600 19015G30KT P6SM OVC035=



000
FTUS41 KCTP 240212 AAA
TAFUNV
TAF AMD
KUNV 240212Z 2402/2424 16006KT P6SM OVC025 WS012/17038KT
     FM240330 16007KT 4SM -RA BR OVC015 WS012/17042KT
     FM240600 16009G15KT 2SM -RA BR OVC007 WS015/17045KT
     FM241600 21012G23KT P6SM BKN035=



000
FTUS41 KCTP 240212 AAA
TAFUNV
TAF AMD
KUNV 240212Z 2402/2424 16006KT P6SM OVC025 WS012/17038KT
     FM240330 16007KT 4SM -RA BR OVC015 WS012/17042KT
     FM240600 16009G15KT 2SM -RA BR OVC007 WS015/17045KT
     FM241600 21012G23KT P6SM BKN035=



000
FTUS41 KCTP 240211 AAC
TAFJST
TAF AMD
KJST 240211Z 2402/2424 15015G27KT 6SM -RA OVC015 WS015/17055KT
     FM240430 15015G28KT 4SM -RA BR OVC007 WS015/17055KT
     FM240600 17012G20KT 2SM -RA BR OVC002 WS015/18048KT
     FM241400 20014G24KT P6SM BKN045
     FM241700 21017G33KT P6SM BKN045=



000
FTUS41 KCTP 240211 AAC
TAFJST
TAF AMD
KJST 240211Z 2402/2424 15015G27KT 6SM -RA OVC015 WS015/17055KT
     FM240430 15015G28KT 4SM -RA BR OVC007 WS015/17055KT
     FM240600 17012G20KT 2SM -RA BR OVC002 WS015/18048KT
     FM241400 20014G24KT P6SM BKN045
     FM241700 21017G33KT P6SM BKN045=



000
FTUS41 KCTP 240146 AAC
TAFAOO
TAF AMD
KAOO 240146Z 2402/2424 16008G16KT P6SM -RA OVC015 WS012/17045KT
     FM240530 16009G15KT 2SM -RA BR OVC007 WS012/17045KT
     FM241300 20010KT P6SM BKN045
     FM241700 20014G24KT P6SM BKN045=



000
FTUS41 KCTP 240146 AAC
TAFAOO
TAF AMD
KAOO 240146Z 2402/2424 16008G16KT P6SM -RA OVC015 WS012/17045KT
     FM240530 16009G15KT 2SM -RA BR OVC007 WS012/17045KT
     FM241300 20010KT P6SM BKN045
     FM241700 20014G24KT P6SM BKN045=



000
FTUS41 KCTP 240111 AAB
TAFBFD
TAF AMD
KBFD 240111Z 2401/2424 14012G20KT P6SM BKN200
     FM240300 14012G24KT 6SM -RA OVC025 WS010/16040KT
     FM240500 15012G24KT 3SM -RA BR OVC008 WS020/17062KT
     FM240800 17012KT 3SM -RA BR OVC004 WS020/17052KT
     FM241600 19015G30KT P6SM OVC035=



000
FTUS41 KCTP 240111 AAB
TAFBFD
TAF AMD
KBFD 240111Z 2401/2424 14012G20KT P6SM BKN200
     FM240300 14012G24KT 6SM -RA OVC025 WS010/16040KT
     FM240500 15012G24KT 3SM -RA BR OVC008 WS020/17062KT
     FM240800 17012KT 3SM -RA BR OVC004 WS020/17052KT
     FM241600 19015G30KT P6SM OVC035=



000
FTUS41 KCTP 240110 AAB
TAFAOO
TAF AMD
KAOO 240110Z 2401/2424 16008KT P6SM OVC030 WS012/17038KT
     FM240300 16008KT P6SM -RA OVC020 WS012/17045KT
     FM240530 16009G15KT 2SM -RA BR OVC007 WS012/17045KT
     FM241300 20010KT P6SM BKN045
     FM241700 20014G24KT P6SM BKN045=



000
FTUS41 KCTP 240110 AAB
TAFAOO
TAF AMD
KAOO 240110Z 2401/2424 16008KT P6SM OVC030 WS012/17038KT
     FM240300 16008KT P6SM -RA OVC020 WS012/17045KT
     FM240530 16009G15KT 2SM -RA BR OVC007 WS012/17045KT
     FM241300 20010KT P6SM BKN045
     FM241700 20014G24KT P6SM BKN045=



000
FTUS41 KCTP 240110 AAB
TAFJST
TAF AMD
KJST 240110Z 2401/2424 15013G23KT P6SM VCSH OVC020 WS015/17042KT
     FM240300 15015G27KT 6SM -RA OVC025 WS015/17055KT
     FM240430 15015G28KT 4SM -RA BR OVC007 WS015/17055KT
     FM240600 17012G20KT 2SM -RA BR OVC002 WS015/18048KT
     FM241400 20014G24KT P6SM BKN045
     FM241700 21017G33KT P6SM BKN045=



000
FTUS41 KCTP 240110 AAB
TAFJST
TAF AMD
KJST 240110Z 2401/2424 15013G23KT P6SM VCSH OVC020 WS015/17042KT
     FM240300 15015G27KT 6SM -RA OVC025 WS015/17055KT
     FM240430 15015G28KT 4SM -RA BR OVC007 WS015/17055KT
     FM240600 17012G20KT 2SM -RA BR OVC002 WS015/18048KT
     FM241400 20014G24KT P6SM BKN045
     FM241700 21017G33KT P6SM BKN045=



000
FTUS41 KCTP 240015 AAA
TAFAOO
TAF AMD
KAOO 240015Z 2400/2424 14007KT P6SM OVC120 WS012/17038KT
     FM240300 16008KT P6SM -RA OVC020 WS012/17045KT
     FM240530 16009G15KT 2SM -RA BR OVC007 WS012/17045KT
     FM241300 20010KT P6SM BKN045
     FM241700 20014G24KT P6SM BKN045=



000
FTUS41 KCTP 240014 AAA
TAFJST
TAF AMD
KJST 240014Z 2400/2424 15012G20KT P6SM OVC120 WS015/17042KT
     FM240300 15012G22KT 6SM -RA OVC025 WS015/17055KT
     FM240430 15012G22KT 4SM -RA BR OVC007 WS015/17055KT
     FM240600 17012G20KT 2SM -RA BR OVC002 WS015/18048KT
     FM241400 20014G24KT P6SM BKN045
     FM241700 21017G33KT P6SM BKN045=



000
FTUS41 KCTP 240014 AAA
TAFJST
TAF AMD
KJST 240014Z 2400/2424 15012G20KT P6SM OVC120 WS015/17042KT
     FM240300 15012G22KT 6SM -RA OVC025 WS015/17055KT
     FM240430 15012G22KT 4SM -RA BR OVC007 WS015/17055KT
     FM240600 17012G20KT 2SM -RA BR OVC002 WS015/18048KT
     FM241400 20014G24KT P6SM BKN045
     FM241700 21017G33KT P6SM BKN045=



000
FTUS41 KCTP 240012 AAA
TAFBFD
TAF AMD
KBFD 240012Z 2400/2424 14008KT P6SM BKN200
     FM240300 14010G20KT 6SM -RA OVC025 WS010/16040KT
     FM240500 15012G22KT 3SM -RA BR OVC008 WS020/17062KT
     FM240800 17012KT 3SM -RA BR OVC004 WS020/17052KT
     FM241600 19015G30KT P6SM OVC035=



000
FTUS41 KCTP 240012 AAA
TAFBFD
TAF AMD
KBFD 240012Z 2400/2424 14008KT P6SM BKN200
     FM240300 14010G20KT 6SM -RA OVC025 WS010/16040KT
     FM240500 15012G22KT 3SM -RA BR OVC008 WS020/17062KT
     FM240800 17012KT 3SM -RA BR OVC004 WS020/17052KT
     FM241600 19015G30KT P6SM OVC035=



000
FTUS41 KCTP 232339
TAFJST
TAF
KJST 232339Z 2400/2424 15012G20KT P6SM OVC120 WS015/17042KT
     FM240300 15012G22KT 6SM -RA OVC025 WS015/17055KT
     FM240430 15012G22KT 4SM -RA BR OVC007 WS015/17055KT
     FM240600 17012G20KT 2SM -RA BR OVC002 WS015/18048KT
     FM241400 20015G25KT P6SM BKN045=



000
FTUS41 KCTP 232339
TAFAOO
TAF
KAOO 232339Z 2400/2424 14007KT P6SM OVC120 WS012/17038KT
     FM240300 16008KT P6SM -RA OVC020 WS012/17045KT
     FM240530 16009G15KT 2SM -RA BR OVC007 WS012/17045KT
     FM241300 20012G23KT P6SM BKN045=



000
FTUS41 KCTP 232339
TAFMDT
TAF
KMDT 232339Z 2400/2424 13007KT P6SM OVC150
     FM240300 13007KT 6SM -RA BR OVC030 WS009/16032KT
     FM240530 14008KT 2SM -RA BR OVC007 WS020/16042KT
     FM241100 17006KT 3SM -DZ BR OVC007
     FM241600 20010G20KT P6SM SCT035=



000
FTUS41 KCTP 232339
TAFUNV
TAF
KUNV 232339Z 2400/2424 15004KT P6SM OVC150 WS012/17038KT
     FM240330 14005KT 4SM -RA BR OVC015 WS012/17042KT
     FM240600 16009G15KT 2SM -RA BR OVC007 WS015/17045KT
     FM241600 21012G23KT P6SM BKN035=



000
FTUS41 KCTP 232339
TAFBFD
TAF
KBFD 232339Z 2400/2424 14008KT P6SM BKN200
     FM240300 14010G20KT 6SM -RA OVC025 WS010/16040KT
     FM240500 15012G22KT 3SM -RA BR OVC008 WS020/17062KT
     FM240800 17012KT 3SM -RA BR OVC004 WS020/17052KT
     FM241600 19013G23KT P6SM OVC035=



000
FTUS41 KCTP 232339
TAFIPT
TAF
KIPT 232339Z 2400/2424 10005KT P6SM OVC150
     FM240430 11007G15KT P6SM -RA OVC025 WS015/17040KT
     FM240600 12010G20KT 3SM -RA BR OVC007 WS015/17045KT
     FM241100 12007KT 3SM -DZ BR OVC006 WS015/20040KT
     FM241700 18010G21KT P6SM SCT007 BKN035=



000
FTUS41 KCTP 232339
TAFIPT
TAF
KIPT 232339Z 2400/2424 10005KT P6SM OVC150
     FM240430 11007G15KT P6SM -RA OVC025 WS015/17040KT
     FM240600 12010G20KT 3SM -RA BR OVC007 WS015/17045KT
     FM241100 12007KT 3SM -DZ BR OVC006 WS015/20040KT
     FM241700 18010G21KT P6SM SCT007 BKN035=



000
FTUS41 KCTP 232339
TAFMDT
TAF
KMDT 232339Z 2400/2424 13007KT P6SM OVC150
     FM240300 13007KT 6SM -RA BR OVC030 WS009/16032KT
     FM240530 14008KT 2SM -RA BR OVC007 WS020/16042KT
     FM241100 17006KT 3SM -DZ BR OVC007
     FM241600 20010G20KT P6SM SCT035=



000
FTUS41 KCTP 232339
TAFAOO
TAF
KAOO 232339Z 2400/2424 14007KT P6SM OVC120 WS012/17038KT
     FM240300 16008KT P6SM -RA OVC020 WS012/17045KT
     FM240530 16009G15KT 2SM -RA BR OVC007 WS012/17045KT
     FM241300 20012G23KT P6SM BKN045=



000
FTUS41 KCTP 232339
TAFBFD
TAF
KBFD 232339Z 2400/2424 14008KT P6SM BKN200
     FM240300 14010G20KT 6SM -RA OVC025 WS010/16040KT
     FM240500 15012G22KT 3SM -RA BR OVC008 WS020/17062KT
     FM240800 17012KT 3SM -RA BR OVC004 WS020/17052KT
     FM241600 19013G23KT P6SM OVC035=



000
FTUS41 KCTP 232339
TAFUNV
TAF
KUNV 232339Z 2400/2424 15004KT P6SM OVC150 WS012/17038KT
     FM240330 14005KT 4SM -RA BR OVC015 WS012/17042KT
     FM240600 16009G15KT 2SM -RA BR OVC007 WS015/17045KT
     FM241600 21012G23KT P6SM BKN035=



000
FTUS41 KCTP 232339
TAFJST
TAF
KJST 232339Z 2400/2424 15012G20KT P6SM OVC120 WS015/17042KT
     FM240300 15012G22KT 6SM -RA OVC025 WS015/17055KT
     FM240430 15012G22KT 4SM -RA BR OVC007 WS015/17055KT
     FM240600 17012G20KT 2SM -RA BR OVC002 WS015/18048KT
     FM241400 20015G25KT P6SM BKN045=



000
FTUS41 KCTP 232222 AAA
TAFMDT
TAF AMD
KMDT 232222Z 2322/2418 13007KT P6SM OVC150
     FM240200 13007KT 6SM -RA BR SCT025 OVC050 WS020/17040KT
     FM240400 14007KT 4SM -RA BR BKN015 OVC025 WS020/15040KT
     FM240600 15005KT 2SM -RA BR BKN007 OVC012 WS020/18050KT
     FM241000 17008KT 1SM -DZ BR OVC004 WS015/18050KT
     FM241200 18009KT 3SM -RA BR BKN007 OVC012 WS015/18050KT
     FM241400 20012G20KT 5SM BR SCT007 BKN035 WS020/19045KT=



000
FTUS41 KCTP 232222 AAA
TAFMDT
TAF AMD
KMDT 232222Z 2322/2418 13007KT P6SM OVC150
     FM240200 13007KT 6SM -RA BR SCT025 OVC050 WS020/17040KT
     FM240400 14007KT 4SM -RA BR BKN015 OVC025 WS020/15040KT
     FM240600 15005KT 2SM -RA BR BKN007 OVC012 WS020/18050KT
     FM241000 17008KT 1SM -DZ BR OVC004 WS015/18050KT
     FM241200 18009KT 3SM -RA BR BKN007 OVC012 WS015/18050KT
     FM241400 20012G20KT 5SM BR SCT007 BKN035 WS020/19045KT=



000
FTUS41 KCTP 232221 AAA
TAFIPT
TAF AMD
KIPT 232221Z 2322/2418 10005KT P6SM BKN250
     FM240200 10004KT P6SM SCT025 OVC050 WS020/17035KT
     FM240400 12007KT 4SM -RA BR OVC015 WS016/17040KT
     FM240700 12009G15KT 2SM -RA BR OVC007 WS015/17045KT
     FM241100 16010G20KT 3SM -DZ BR OVC002 WS015/18050KT
     FM241400 18014G30KT P6SM SCT007 BKN035 WS020/19045KT=



000
FTUS41 KCTP 232221 AAA
TAFIPT
TAF AMD
KIPT 232221Z 2322/2418 10005KT P6SM BKN250
     FM240200 10004KT P6SM SCT025 OVC050 WS020/17035KT
     FM240400 12007KT 4SM -RA BR OVC015 WS016/17040KT
     FM240700 12009G15KT 2SM -RA BR OVC007 WS015/17045KT
     FM241100 16010G20KT 3SM -DZ BR OVC002 WS015/18050KT
     FM241400 18014G30KT P6SM SCT007 BKN035 WS020/19045KT=



000
FTUS41 KCTP 232221 AAA
TAFIPT
TAF AMD
KIPT 232221Z 2322/2418 10005KT P6SM BKN250
     FM240200 10004KT P6SM SCT025 OVC050 WS020/17035KT
     FM240400 12007KT 4SM -RA BR OVC015 WS016/17040KT
     FM240700 12009G15KT 2SM -RA BR OVC007 WS015/17045KT
     FM241100 16010G20KT 3SM -DZ BR OVC002 WS015/18050KT
     FM241400 18014G30KT P6SM SCT007 BKN035 WS020/19045KT=



000
FTUS41 KCTP 232221 AAA
TAFIPT
TAF AMD
KIPT 232221Z 2322/2418 10005KT P6SM BKN250
     FM240200 10004KT P6SM SCT025 OVC050 WS020/17035KT
     FM240400 12007KT 4SM -RA BR OVC015 WS016/17040KT
     FM240700 12009G15KT 2SM -RA BR OVC007 WS015/17045KT
     FM241100 16010G20KT 3SM -DZ BR OVC002 WS015/18050KT
     FM241400 18014G30KT P6SM SCT007 BKN035 WS020/19045KT=



000
FTUS41 KCTP 232221 AAA
TAFUNV
TAF AMD
KUNV 232221Z 2322/2418 13004KT P6SM BKN250
     FM240200 16007KT 4SM -RA BR OVC015 WS016/17040KT
     FM240600 16009G15KT 2SM -RA BR OVC007 WS015/17045KT
     FM241000 19010G20KT 3SM -DZ BR OVC002 WS015/18050KT
     FM241400 20012G25KT P6SM SCT007 BKN035 WS020/19045KT=



000
FTUS41 KCTP 232221 AAA
TAFUNV
TAF AMD
KUNV 232221Z 2322/2418 13004KT P6SM BKN250
     FM240200 16007KT 4SM -RA BR OVC015 WS016/17040KT
     FM240600 16009G15KT 2SM -RA BR OVC007 WS015/17045KT
     FM241000 19010G20KT 3SM -DZ BR OVC002 WS015/18050KT
     FM241400 20012G25KT P6SM SCT007 BKN035 WS020/19045KT=



000
FTUS41 KCTP 232221 AAA
TAFUNV
TAF AMD
KUNV 232221Z 2322/2418 13004KT P6SM BKN250
     FM240200 16007KT 4SM -RA BR OVC015 WS016/17040KT
     FM240600 16009G15KT 2SM -RA BR OVC007 WS015/17045KT
     FM241000 19010G20KT 3SM -DZ BR OVC002 WS015/18050KT
     FM241400 20012G25KT P6SM SCT007 BKN035 WS020/19045KT=



000
FTUS41 KCTP 232221 AAA
TAFUNV
TAF AMD
KUNV 232221Z 2322/2418 13004KT P6SM BKN250
     FM240200 16007KT 4SM -RA BR OVC015 WS016/17040KT
     FM240600 16009G15KT 2SM -RA BR OVC007 WS015/17045KT
     FM241000 19010G20KT 3SM -DZ BR OVC002 WS015/18050KT
     FM241400 20012G25KT P6SM SCT007 BKN035 WS020/19045KT=



000
FTUS41 KCTP 232220 AAA
TAFAOO
TAF AMD
KAOO 232220Z 2322/2418 16007KT P6SM OVC200
     FM240200 16007KT 4SM -RA BR OVC015 WS016/17040KT
     FM240600 16009G15KT 2SM -RA BR OVC007 WS015/17045KT
     FM241000 19010G20KT 3SM -DZ BR OVC002 WS015/18045KT
     FM241300 20012G25KT P6SM SCT007 BKN035 WS020/19040KT=



000
FTUS41 KCTP 232220 AAA
TAFAOO
TAF AMD
KAOO 232220Z 2322/2418 16007KT P6SM OVC200
     FM240200 16007KT 4SM -RA BR OVC015 WS016/17040KT
     FM240600 16009G15KT 2SM -RA BR OVC007 WS015/17045KT
     FM241000 19010G20KT 3SM -DZ BR OVC002 WS015/18045KT
     FM241300 20012G25KT P6SM SCT007 BKN035 WS020/19040KT=



000
FTUS41 KCTP 232220 AAA
TAFAOO
TAF AMD
KAOO 232220Z 2322/2418 16007KT P6SM OVC200
     FM240200 16007KT 4SM -RA BR OVC015 WS016/17040KT
     FM240600 16009G15KT 2SM -RA BR OVC007 WS015/17045KT
     FM241000 19010G20KT 3SM -DZ BR OVC002 WS015/18045KT
     FM241300 20012G25KT P6SM SCT007 BKN035 WS020/19040KT=



000
FTUS41 KCTP 232220 AAA
TAFAOO
TAF AMD
KAOO 232220Z 2322/2418 16007KT P6SM OVC200
     FM240200 16007KT 4SM -RA BR OVC015 WS016/17040KT
     FM240600 16009G15KT 2SM -RA BR OVC007 WS015/17045KT
     FM241000 19010G20KT 3SM -DZ BR OVC002 WS015/18045KT
     FM241300 20012G25KT P6SM SCT007 BKN035 WS020/19040KT=



000
FTUS41 KCTP 232219 AAC
TAFJST
TAF AMD
KJST 232219Z 2322/2418 14012G20KT P6SM OVC150
     FM240200 15012G22KT P6SM -SHRA OVC025
     FM240400 16010G15KT 4SM -RA BR OVC007 WS016/17045KT
     FM240600 18010G17KT 2SM -RA BR OVC004 WS015/18050KT
     FM241000 19014G22KT 3SM -DZ BR OVC002 WS020/19045KT
     FM241300 20015G32KT P6SM SCT007 BKN035=



000
FTUS41 KCTP 232219 AAC
TAFJST
TAF AMD
KJST 232219Z 2322/2418 14012G20KT P6SM OVC150
     FM240200 15012G22KT P6SM -SHRA OVC025
     FM240400 16010G15KT 4SM -RA BR OVC007 WS016/17045KT
     FM240600 18010G17KT 2SM -RA BR OVC004 WS015/18050KT
     FM241000 19014G22KT 3SM -DZ BR OVC002 WS020/19045KT
     FM241300 20015G32KT P6SM SCT007 BKN035=



000
FTUS41 KCTP 232219 AAC
TAFJST
TAF AMD
KJST 232219Z 2322/2418 14012G20KT P6SM OVC150
     FM240200 15012G22KT P6SM -SHRA OVC025
     FM240400 16010G15KT 4SM -RA BR OVC007 WS016/17045KT
     FM240600 18010G17KT 2SM -RA BR OVC004 WS015/18050KT
     FM241000 19014G22KT 3SM -DZ BR OVC002 WS020/19045KT
     FM241300 20015G32KT P6SM SCT007 BKN035=



000
FTUS41 KCTP 232219 AAC
TAFJST
TAF AMD
KJST 232219Z 2322/2418 14012G20KT P6SM OVC150
     FM240200 15012G22KT P6SM -SHRA OVC025
     FM240400 16010G15KT 4SM -RA BR OVC007 WS016/17045KT
     FM240600 18010G17KT 2SM -RA BR OVC004 WS015/18050KT
     FM241000 19014G22KT 3SM -DZ BR OVC002 WS020/19045KT
     FM241300 20015G32KT P6SM SCT007 BKN035=



000
FTUS41 KCTP 232214 AAA
TAFBFD
TAF AMD
KBFD 232214Z 2322/2418 14008KT P6SM BKN200
     FM240400 15009KT 6SM -RA SCT015 BKN035 WS017/17045KT
     FM240600 15012KT 3SM -RA BR OVC009 WS020/17050KT
     FM240800 14010KT 1SM -RA BR OVC005 WS015/17050KT
     FM241300 17007KT 3SM -DZ BR OVC003 WS015/19045KT=



000
FTUS41 KCTP 232040 AAB
TAFJST
TAF AMD
KJST 232040Z 2321/2418 15012G18KT P6SM SCT080 BKN130
     FM232300 15010KT P6SM SCT025 OVC050
     FM240200 16010G15KT 4SM -RA BR OVC007 WS016/17045KT
     FM240600 18010G17KT 2SM -RA BR OVC004 WS015/18050KT
     FM241000 19014G22KT 3SM -DZ BR OVC002 WS020/19045KT
     FM241300 20015G32KT P6SM SCT007 BKN035=



000
FTUS41 KCTP 232040 AAB
TAFJST
TAF AMD
KJST 232040Z 2321/2418 15012G18KT P6SM SCT080 BKN130
     FM232300 15010KT P6SM SCT025 OVC050
     FM240200 16010G15KT 4SM -RA BR OVC007 WS016/17045KT
     FM240600 18010G17KT 2SM -RA BR OVC004 WS015/18050KT
     FM241000 19014G22KT 3SM -DZ BR OVC002 WS020/19045KT
     FM241300 20015G32KT P6SM SCT007 BKN035=



000
FTUS41 KCTP 231912 AAA
TAFJST
TAF AMD
KJST 231912Z 2319/2418 17012KT P6SM SCT080 BKN250
     FM232300 15010KT P6SM SCT025 OVC050
     FM240200 16010G15KT 4SM -RA BR OVC007 WS016/17045KT
     FM240600 18010G17KT 2SM -RA BR OVC004 WS015/18050KT
     FM241000 19014G22KT 3SM -DZ BR OVC002 WS020/19045KT
     FM241300 20015G32KT P6SM SCT007 BKN035=



000
FTUS41 KCTP 231912 AAA
TAFJST
TAF AMD
KJST 231912Z 2319/2418 17012KT P6SM SCT080 BKN250
     FM232300 15010KT P6SM SCT025 OVC050
     FM240200 16010G15KT 4SM -RA BR OVC007 WS016/17045KT
     FM240600 18010G17KT 2SM -RA BR OVC004 WS015/18050KT
     FM241000 19014G22KT 3SM -DZ BR OVC002 WS020/19045KT
     FM241300 20015G32KT P6SM SCT007 BKN035=



000
FTUS41 KCTP 231736
TAFBFD
TAF
KBFD 231736Z 2318/2418 17007KT P6SM SCT025 BKN050
     FM240300 15009KT 6SM -RA SCT015 BKN035 WS017/17045KT
     FM240600 15012KT 3SM -RA BR OVC009 WS020/17050KT
     FM240800 14010KT 1SM -RA BR OVC005 WS015/17050KT
     FM241300 17007KT 3SM -DZ BR OVC003 WS015/19045KT=



000
FTUS41 KCTP 231736
TAFUNV
TAF
KUNV 231736Z 2318/2418 15006KT P6SM BKN250
     FM240200 16007KT 4SM -RA BR OVC015 WS016/17040KT
     FM240600 16009G15KT 2SM -RA BR OVC007 WS015/17045KT
     FM241000 19010G20KT 3SM -DZ BR OVC002 WS015/18050KT
     FM241400 20012G25KT P6SM SCT007 BKN035 WS020/19045KT=



000
FTUS41 KCTP 231736
TAFAOO
TAF
KAOO 231736Z 2318/2418 17008KT P6SM SCT080 BKN250
     FM240200 16007KT 4SM -RA BR OVC015 WS016/17040KT
     FM240600 16009G15KT 2SM -RA BR OVC007 WS015/17045KT
     FM241000 19010G20KT 3SM -DZ BR OVC002 WS015/18045KT
     FM241300 20012G25KT P6SM SCT007 BKN035 WS020/19040KT=



000
FTUS41 KCTP 231736
TAFJST
TAF
KJST 231736Z 2318/2418 20007KT P6SM SCT080 BKN250
     FM232300 15007KT P6SM SCT025 OVC050
     FM240200 16010G15KT 4SM -RA BR OVC007 WS016/17045KT
     FM240600 18010G17KT 2SM -RA BR OVC004 WS015/18050KT
     FM241000 19014G22KT 3SM -DZ BR OVC002 WS020/19045KT
     FM241300 20015G32KT P6SM SCT007 BKN035=



000
FTUS41 KCTP 231736
TAFIPT
TAF
KIPT 231736Z 2318/2418 10005KT P6SM FEW070 BKN250
     FM240200 10004KT P6SM SCT025 OVC050 WS020/17035KT
     FM240400 12007KT 4SM -RA BR OVC015 WS016/17040KT
     FM240700 12009G15KT 2SM -RA BR OVC007 WS015/17045KT
     FM241100 16010G20KT 3SM -DZ BR OVC002 WS015/18050KT
     FM241400 18014G30KT P6SM SCT007 BKN035 WS020/19045KT=



000
FTUS41 KCTP 231736
TAFMDT
TAF
KMDT 231736Z 2318/2418 18004KT P6SM BKN250
     FM240200 13007KT 6SM -RA BR SCT025 OVC050 WS020/17040KT
     FM240400 14007KT 4SM -RA BR BKN015 OVC025 WS020/15040KT
     FM240600 15005KT 2SM -RA BR BKN007 OVC012 WS020/18050KT
     FM241000 17008KT 1SM -DZ BR OVC004 WS015/18050KT
     FM241200 18009KT 3SM -RA BR BKN007 OVC012 WS015/18050KT
     FM241400 20012G20KT 5SM BR SCT007 BKN035 WS020/19045KT=



000
FTUS41 KCTP 231736
TAFIPT
TAF
KIPT 231736Z 2318/2418 10005KT P6SM FEW070 BKN250
     FM240200 10004KT P6SM SCT025 OVC050 WS020/17035KT
     FM240400 12007KT 4SM -RA BR OVC015 WS016/17040KT
     FM240700 12009G15KT 2SM -RA BR OVC007 WS015/17045KT
     FM241100 16010G20KT 3SM -DZ BR OVC002 WS015/18050KT
     FM241400 18014G30KT P6SM SCT007 BKN035 WS020/19045KT=



000
FTUS41 KCTP 231736
TAFBFD
TAF
KBFD 231736Z 2318/2418 17007KT P6SM SCT025 BKN050
     FM240300 15009KT 6SM -RA SCT015 BKN035 WS017/17045KT
     FM240600 15012KT 3SM -RA BR OVC009 WS020/17050KT
     FM240800 14010KT 1SM -RA BR OVC005 WS015/17050KT
     FM241300 17007KT 3SM -DZ BR OVC003 WS015/19045KT=



000
FTUS41 KCTP 231736
TAFMDT
TAF
KMDT 231736Z 2318/2418 18004KT P6SM BKN250
     FM240200 13007KT 6SM -RA BR SCT025 OVC050 WS020/17040KT
     FM240400 14007KT 4SM -RA BR BKN015 OVC025 WS020/15040KT
     FM240600 15005KT 2SM -RA BR BKN007 OVC012 WS020/18050KT
     FM241000 17008KT 1SM -DZ BR OVC004 WS015/18050KT
     FM241200 18009KT 3SM -RA BR BKN007 OVC012 WS015/18050KT
     FM241400 20012G20KT 5SM BR SCT007 BKN035 WS020/19045KT=



000
FTUS41 KCTP 231736
TAFUNV
TAF
KUNV 231736Z 2318/2418 15006KT P6SM BKN250
     FM240200 16007KT 4SM -RA BR OVC015 WS016/17040KT
     FM240600 16009G15KT 2SM -RA BR OVC007 WS015/17045KT
     FM241000 19010G20KT 3SM -DZ BR OVC002 WS015/18050KT
     FM241400 20012G25KT P6SM SCT007 BKN035 WS020/19045KT=



000
FTUS41 KCTP 231736
TAFJST
TAF
KJST 231736Z 2318/2418 20007KT P6SM SCT080 BKN250
     FM232300 15007KT P6SM SCT025 OVC050
     FM240200 16010G15KT 4SM -RA BR OVC007 WS016/17045KT
     FM240600 18010G17KT 2SM -RA BR OVC004 WS015/18050KT
     FM241000 19014G22KT 3SM -DZ BR OVC002 WS020/19045KT
     FM241300 20015G32KT P6SM SCT007 BKN035=



000
FTUS41 KCTP 231736
TAFAOO
TAF
KAOO 231736Z 2318/2418 17008KT P6SM SCT080 BKN250
     FM240200 16007KT 4SM -RA BR OVC015 WS016/17040KT
     FM240600 16009G15KT 2SM -RA BR OVC007 WS015/17045KT
     FM241000 19010G20KT 3SM -DZ BR OVC002 WS015/18045KT
     FM241300 20012G25KT P6SM SCT007 BKN035 WS020/19040KT=



000
FTUS41 KCTP 231530 AAB
TAFBFD
TAF AMD
KBFD 231530Z 2316/2412 VRB03KT 6SM -RA OVC040
     FM231700 17005KT P6SM SCT025 BKN050
     FM240100 15008KT P6SM SCT050 BKN250 WS017/17045KT
     FM240500 14010KT 4SM -RA BR SCT007 BKN015 OVC025 WS020/17055KT=



000
FTUS41 KCTP 231530 AAB
TAFBFD
TAF AMD
KBFD 231530Z 2316/2412 VRB03KT 6SM -RA OVC040
     FM231700 17005KT P6SM SCT025 BKN050
     FM240100 15008KT P6SM SCT050 BKN250 WS017/17045KT
     FM240500 14010KT 4SM -RA BR SCT007 BKN015 OVC025 WS020/17055KT=



000
FTUS41 KCTP 231529 AAA
TAFMDT
TAF AMD
KMDT 231529Z 2315/2412 18004KT P6SM BKN250
     FM240200 13007KT 6SM -RA BR SCT025 OVC050
     FM240400 14008G15KT 4SM -RA BR BKN015 OVC025 WS020/15040KT
     FM240600 19010KT 2SM -RA BR BKN007 OVC012 WS020/19045KT=



000
FTUS41 KCTP 231529 AAA
TAFMDT
TAF AMD
KMDT 231529Z 2315/2412 18004KT P6SM BKN250
     FM240200 13007KT 6SM -RA BR SCT025 OVC050
     FM240400 14008G15KT 4SM -RA BR BKN015 OVC025 WS020/15040KT
     FM240600 19010KT 2SM -RA BR BKN007 OVC012 WS020/19045KT=



000
FTUS41 KCTP 231526 AAA
TAFIPT
TAF AMD
KIPT 231526Z 2315/2412 10005KT P6SM FEW070 BKN250
     FM240200 10004KT P6SM SCT025 OVC050
     FM240400 12005KT 4SM -RA BR OVC025 WS020/18035KT
     FM240700 13008KT 3SM -RA BR OVC010 WS020/18040KT=



000
FTUS41 KCTP 231526 AAA
TAFIPT
TAF AMD
KIPT 231526Z 2315/2412 10005KT P6SM FEW070 BKN250
     FM240200 10004KT P6SM SCT025 OVC050
     FM240400 12005KT 4SM -RA BR OVC025 WS020/18035KT
     FM240700 13008KT 3SM -RA BR OVC010 WS020/18040KT=



000
FTUS41 KCTP 231523 AAA
TAFUNV
TAF AMD
KUNV 231523Z 2315/2412 15006KT P6SM BKN250
     FM240200 15009G15KT 4SM -RA BR OVC015 WS020/18040KT
     FM240700 15010KT 3SM -RA BR OVC007 WS020/18040KT=



000
FTUS41 KCTP 231523 AAA
TAFUNV
TAF AMD
KUNV 231523Z 2315/2412 15006KT P6SM BKN250
     FM240200 15009G15KT 4SM -RA BR OVC015 WS020/18040KT
     FM240700 15010KT 3SM -RA BR OVC007 WS020/18040KT=



000
FTUS41 KCTP 231521 AAA
TAFAOO
TAF AMD
KAOO 231521Z 2315/2412 17008KT P6SM SCT080 BKN250
     FM240200 16009G15KT 4SM -RA BR OVC015 WS016/17040KT
     FM240700 16010G15KT 3SM -RA BR OVC007 WS015/17040KT=



000
FTUS41 KCTP 231521 AAA
TAFAOO
TAF AMD
KAOO 231521Z 2315/2412 17008KT P6SM SCT080 BKN250
     FM240200 16009G15KT 4SM -RA BR OVC015 WS016/17040KT
     FM240700 16010G15KT 3SM -RA BR OVC007 WS015/17040KT=



000
FTUS41 KCTP 231519 AAA
TAFJST
TAF AMD
KJST 231519Z 2315/2412 20007KT P6SM SCT080 BKN250
     FM232300 15007KT P6SM SCT025 OVC050
     FM240200 16009G15KT 4SM -RA BR OVC007 WS016/17045KT
     FM240600 18010KT 2SM -RA BR OVC004 WS015/17045KT=



000
FTUS41 KCTP 231519 AAA
TAFJST
TAF AMD
KJST 231519Z 2315/2412 20007KT P6SM SCT080 BKN250
     FM232300 15007KT P6SM SCT025 OVC050
     FM240200 16009G15KT 4SM -RA BR OVC007 WS016/17045KT
     FM240600 18010KT 2SM -RA BR OVC004 WS015/17045KT=



000
FTUS41 KCTP 231410 AAA
TAFBFD
TAF AMD
KBFD 231410Z 2314/2412 VRB03KT 6SM -RA SCT027 OVC030
     FM231700 17005KT P6SM SCT025 BKN050
     FM240100 15008KT P6SM SCT050 BKN250 WS017/17045KT
     FM240500 14010KT 4SM -RA BR SCT007 BKN015 OVC025 WS020/17055KT=



000
FTUS41 KCTP 231410 AAA
TAFBFD
TAF AMD
KBFD 231410Z 2314/2412 VRB03KT 6SM -RA SCT027 OVC030
     FM231700 17005KT P6SM SCT025 BKN050
     FM240100 15008KT P6SM SCT050 BKN250 WS017/17045KT
     FM240500 14010KT 4SM -RA BR SCT007 BKN015 OVC025 WS020/17055KT=



000
FTUS41 KCTP 231148
TAFAOO
TAF
KAOO 231148Z 2312/2412 23005KT P6SM OVC100
     FM231400 18004KT P6SM SCT250
     FM231900 15007KT P6SM SCT025 OVC050
     FM240200 16009G15KT 4SM -RA BR OVC015 WS016/17040KT=



000
FTUS41 KCTP 231148
TAFAOO
TAF
KAOO 231148Z 2312/2412 23005KT P6SM OVC100
     FM231400 18004KT P6SM SCT250
     FM231900 15007KT P6SM SCT025 OVC050
     FM240200 16009G15KT 4SM -RA BR OVC015 WS016/17040KT=



000
FTUS41 KCTP 231148
TAFUNV
TAF
KUNV 231148Z 2312/2412 00000KT P6SM OVC040
     FM232000 15007KT P6SM SCT025 OVC050
     FM240200 15009G15KT 4SM -RA BR OVC015 WS020/18041KT=



000
FTUS41 KCTP 231148
TAFIPT
TAF
KIPT 231148Z 2312/2412 00000KT P6SM FEW050 SCT070 OVC090
     FM231500 14005KT P6SM SCT250
     FM240200 15007KT P6SM SCT025 OVC050
     FM240400 16005KT 4SM -RA BR OVC025 WS020/18034KT=



000
FTUS41 KCTP 231148
TAFBFD
TAF
KBFD 231148Z 2312/2412 VRB03KT P6SM SCT027 OVC035
     FM231700 17005KT P6SM SCT025 BKN050
     FM240100 15008KT P6SM SCT050 BKN250 WS017/17045KT
     FM240500 14010KT 4SM -RA BR SCT007 BKN015 OVC025 WS020/17055KT=



000
FTUS41 KCTP 231148
TAFJST
TAF
KJST 231148Z 2312/2412 21007KT P6SM VCSH FEW040 BKN060 OVC080
     FM231400 20007KT P6SM BKN250
     FM232000 15007KT P6SM SCT025 OVC050
     FM240200 16009G15KT 4SM -RA BR OVC015 WS016/17047KT=



000
FTUS41 KCTP 231148
TAFJST
TAF
KJST 231148Z 2312/2412 21007KT P6SM VCSH FEW040 BKN060 OVC080
     FM231400 20007KT P6SM BKN250
     FM232000 15007KT P6SM SCT025 OVC050
     FM240200 16009G15KT 4SM -RA BR OVC015 WS016/17047KT=



000
FTUS41 KCTP 231148
TAFBFD
TAF
KBFD 231148Z 2312/2412 VRB03KT P6SM SCT027 OVC035
     FM231700 17005KT P6SM SCT025 BKN050
     FM240100 15008KT P6SM SCT050 BKN250 WS017/17045KT
     FM240500 14010KT 4SM -RA BR SCT007 BKN015 OVC025 WS020/17055KT=



000
FTUS41 KCTP 231148
TAFUNV
TAF
KUNV 231148Z 2312/2412 00000KT P6SM OVC040
     FM232000 15007KT P6SM SCT025 OVC050
     FM240200 15009G15KT 4SM -RA BR OVC015 WS020/18041KT=



000
FTUS41 KCTP 231148
TAFMDT
TAF
KMDT 231148Z 2312/2412 00000KT P6SM SCT100
     FM231400 18004KT P6SM SCT250
     FM240100 13007KT 5SM -RA BR SCT025 OVC050
     FM240300 14008G15KT 4SM -RA BR BKN015 OVC025 WS020/15040KT
     FM240600 19010KT 2SM -RA BR BKN009 OVC015 WS020/19045KT=



000
FTUS41 KCTP 231148
TAFIPT
TAF
KIPT 231148Z 2312/2412 00000KT P6SM FEW050 SCT070 OVC090
     FM231500 14005KT P6SM SCT250
     FM240200 15007KT P6SM SCT025 OVC050
     FM240400 16005KT 4SM -RA BR OVC025 WS020/18034KT=



000
FTUS41 KCTP 231148
TAFMDT
TAF
KMDT 231148Z 2312/2412 00000KT P6SM SCT100
     FM231400 18004KT P6SM SCT250
     FM240100 13007KT 5SM -RA BR SCT025 OVC050
     FM240300 14008G15KT 4SM -RA BR BKN015 OVC025 WS020/15040KT
     FM240600 19010KT 2SM -RA BR BKN009 OVC015 WS020/19045KT=



000
FTUS41 KCTP 230925 AAA
TAFIPT
TAF AMD
KIPT 230925Z 2309/2406 00000KT 6SM BR VCSH BKN060 OVC070
      WS020/27040KT
     FM231100 24004KT P6SM OVC050 WS020/27040KT
     FM231500 14005KT P6SM SCT250
     FM240200 15007KT P6SM SCT025 OVC050
     FM240400 16005KT 4SM -RA BR OVC025 WS020/18034KT=



000
FTUS41 KCTP 230925 AAA
TAFAOO
TAF AMD
KAOO 230925Z 2309/2406 25004KT P6SM BKN090 WS020/27040KT
     FM231400 18004KT P6SM SCT250
     FM231900 15007KT P6SM SCT025 OVC050
     FM240200 16009G15KT 4SM -RA BR OVC015 WS016/17040KT=



000
FTUS41 KCTP 230925 AAA
TAFMDT
TAF AMD
KMDT 230925Z 2309/2406 03003KT P6SM FEW080 WS020/23035KT
     FM231400 18004KT P6SM SCT250
     FM240100 13007KT 5SM -RA BR SCT025 OVC050
     FM240500 14008G15KT 4SM -RA BR OVC025 WS020/15040KT=



000
FTUS41 KCTP 230925 AAA
TAFUNV
TAF AMD
KUNV 230925Z 2309/2406 00000KT P6SM VCSH BKN070 OVC080
      WS020/24040KT
     FM231100 24004KT P6SM BKN060 WS020/27040KT
     FM232000 15007KT P6SM SCT025 OVC050
     FM240200 15009G15KT 4SM -RA BR OVC015 WS020/18041KT=



000
FTUS41 KCTP 230925 AAA
TAFBFD
TAF AMD
KBFD 230925Z 2309/2406 23006KT P6SM VCSH OVC029 WS020/25040KT
     FM231100 18006KT P6SM OVC025
     FM231700 17005KT P6SM SCT025 BKN050
     FM240100 15008KT P6SM SCT050 BKN250 WS017/17045KT
     FM240500 14010KT 4SM -RA BR BKN015 OVC025 WS020/17055KT=



000
FTUS41 KCTP 230925 AAA
TAFBFD
TAF AMD
KBFD 230925Z 2309/2406 23006KT P6SM VCSH OVC029 WS020/25040KT
     FM231100 18006KT P6SM OVC025
     FM231700 17005KT P6SM SCT025 BKN050
     FM240100 15008KT P6SM SCT050 BKN250 WS017/17045KT
     FM240500 14010KT 4SM -RA BR BKN015 OVC025 WS020/17055KT=



000
FTUS41 KCTP 230925 AAA
TAFJST
TAF AMD
KJST 230925Z 2309/2406 22006KT P6SM VCSH BKN060 OVC080
      WS020/25040KT
     FM231400 20007KT P6SM BKN250
     FM232000 15007KT P6SM SCT025 OVC050
     FM240200 16009G15KT 4SM -RA BR OVC015 WS016/17047KT=



000
FTUS41 KCTP 230925 AAA
TAFAOO
TAF AMD
KAOO 230925Z 2309/2406 25004KT P6SM BKN090 WS020/27040KT
     FM231400 18004KT P6SM SCT250
     FM231900 15007KT P6SM SCT025 OVC050
     FM240200 16009G15KT 4SM -RA BR OVC015 WS016/17040KT=



000
FTUS41 KCTP 230925 AAA
TAFUNV
TAF AMD
KUNV 230925Z 2309/2406 00000KT P6SM VCSH BKN070 OVC080
      WS020/24040KT
     FM231100 24004KT P6SM BKN060 WS020/27040KT
     FM232000 15007KT P6SM SCT025 OVC050
     FM240200 15009G15KT 4SM -RA BR OVC015 WS020/18041KT=



000
FTUS41 KCTP 230925 AAA
TAFJST
TAF AMD
KJST 230925Z 2309/2406 22006KT P6SM VCSH BKN060 OVC080
      WS020/25040KT
     FM231400 20007KT P6SM BKN250
     FM232000 15007KT P6SM SCT025 OVC050
     FM240200 16009G15KT 4SM -RA BR OVC015 WS016/17047KT=



000
FTUS41 KCTP 230925 AAA
TAFIPT
TAF AMD
KIPT 230925Z 2309/2406 00000KT 6SM BR VCSH BKN060 OVC070
      WS020/27040KT
     FM231100 24004KT P6SM OVC050 WS020/27040KT
     FM231500 14005KT P6SM SCT250
     FM240200 15007KT P6SM SCT025 OVC050
     FM240400 16005KT 4SM -RA BR OVC025 WS020/18034KT=



000
FTUS41 KCTP 230925 AAA
TAFMDT
TAF AMD
KMDT 230925Z 2309/2406 03003KT P6SM FEW080 WS020/23035KT
     FM231400 18004KT P6SM SCT250
     FM240100 13007KT 5SM -RA BR SCT025 OVC050
     FM240500 14008G15KT 4SM -RA BR OVC025 WS020/15040KT=



000
FTUS41 KCTP 230548
TAFBFD
TAF
KBFD 230548Z 2306/2406 23008G18KT P6SM -SHRA OVC035 WS018/25050KT
      TEMPO 2306/2307 3SM -SHRA BR OVC025
     FM230700 21008KT P6SM VCSH SCT015 OVC025 WS020/25040KT
     FM231600 18006KT P6SM OVC025=



000
FTUS41 KCTP 230548
TAFJST
TAF
KJST 230548Z 2306/2406 21009KT P6SM VCSH OVC050 WS020/25040KT
     FM231400 20007KT P6SM BKN250
     FM232000 15007KT P6SM SCT025 OVC050
     FM240200 16009G15KT 4SM -RA BR OVC015 WS016/17047KT=



000
FTUS41 KCTP 230548
TAFUNV
TAF
KUNV 230548Z 2306/2406 VRB03KT P6SM -SHRA OVC040 WS020/24040KT
     FM231100 24004KT P6SM BKN060 WS020/27040KT
     FM232000 15007KT P6SM SCT025 OVC050
     FM240200 15009G15KT 4SM -RA BR OVC015 WS020/18041KT=



000
FTUS41 KCTP 230548
TAFAOO
TAF
KAOO 230548Z 2306/2406 27005KT P6SM -SHRA SCT050 BKN100
      WS020/27040KT
     FM231400 18004KT P6SM SCT250
     FM231900 15007KT P6SM SCT025 OVC050
     FM240200 16009G15KT 4SM -RA BR OVC015 WS016/17040KT=



000
FTUS41 KCTP 230548
TAFMDT
TAF
KMDT 230548Z 2306/2406 VRB05KT P6SM SCT100 WS020/23035KT
     FM231400 18004KT P6SM SCT250
     FM240100 13007KT 5SM -RA BR SCT025 OVC050
     FM240500 14008G15KT 4SM -RA BR OVC025 WS020/15040KT=



000
FTUS41 KCTP 230548
TAFIPT
TAF
KIPT 230548Z 2306/2406 VRB03KT P6SM -RA OVC035 WS020/27040KT
      TEMPO 2306/2309 5SM -FZRA BR OVC025
     FM231100 24004KT P6SM OVC050 WS020/27040KT
     FM231500 14005KT P6SM SCT250
     FM240200 15007KT P6SM SCT025 OVC050
     FM240400 16005KT 4SM -RA BR OVC025 WS020/18034KT=



000
FTUS41 KCTP 230548
TAFIPT
TAF
KIPT 230548Z 2306/2406 VRB03KT P6SM -RA OVC035 WS020/27040KT
      TEMPO 2306/2309 5SM -FZRA BR OVC025
     FM231100 24004KT P6SM OVC050 WS020/27040KT
     FM231500 14005KT P6SM SCT250
     FM240200 15007KT P6SM SCT025 OVC050
     FM240400 16005KT 4SM -RA BR OVC025 WS020/18034KT=



000
FTUS41 KCTP 230548
TAFMDT
TAF
KMDT 230548Z 2306/2406 VRB05KT P6SM SCT100 WS020/23035KT
     FM231400 18004KT P6SM SCT250
     FM240100 13007KT 5SM -RA BR SCT025 OVC050
     FM240500 14008G15KT 4SM -RA BR OVC025 WS020/15040KT=



000
FTUS41 KCTP 230548
TAFJST
TAF
KJST 230548Z 2306/2406 21009KT P6SM VCSH OVC050 WS020/25040KT
     FM231400 20007KT P6SM BKN250
     FM232000 15007KT P6SM SCT025 OVC050
     FM240200 16009G15KT 4SM -RA BR OVC015 WS016/17047KT=



000
FTUS41 KCTP 230548
TAFUNV
TAF
KUNV 230548Z 2306/2406 VRB03KT P6SM -SHRA OVC040 WS020/24040KT
     FM231100 24004KT P6SM BKN060 WS020/27040KT
     FM232000 15007KT P6SM SCT025 OVC050
     FM240200 15009G15KT 4SM -RA BR OVC015 WS020/18041KT=



000
FTUS41 KCTP 230548
TAFAOO
TAF
KAOO 230548Z 2306/2406 27005KT P6SM -SHRA SCT050 BKN100
      WS020/27040KT
     FM231400 18004KT P6SM SCT250
     FM231900 15007KT P6SM SCT025 OVC050
     FM240200 16009G15KT 4SM -RA BR OVC015 WS016/17040KT=



000
FTUS41 KCTP 230548
TAFBFD
TAF
KBFD 230548Z 2306/2406 23008G18KT P6SM -SHRA OVC035 WS018/25050KT
      TEMPO 2306/2307 3SM -SHRA BR OVC025
     FM230700 21008KT P6SM VCSH SCT015 OVC025 WS020/25040KT
     FM231600 18006KT P6SM OVC025=



000
FTUS41 KCTP 230503 AAB
TAFBFD
TAF AMD
KBFD 230503Z 2305/2324 23008G18KT P6SM -SHRA OVC035 WS018/25050KT
      TEMPO 2305/2307 3SM -SHRA BR OVC015
     FM230700 21008KT P6SM VCSH OVC015 WS020/25040KT
     FM231600 18006KT P6SM OVC025=



000
FTUS41 KCTP 230503 AAA
TAFJST
TAF AMD
KJST 230503Z 2305/2324 21009KT P6SM VCSH OVC050 WS020/25040KT
     FM231400 20007KT P6SM BKN250=



000
FTUS41 KCTP 230503 AAA
TAFAOO
TAF AMD
KAOO 230503Z 2305/2324 27005KT P6SM -SHRA SCT050 BKN100
      WS020/27040KT
     FM231400 18004KT P6SM SCT250=



000
FTUS41 KCTP 230503 AAA
TAFUNV
TAF AMD
KUNV 230503Z 2305/2324 VRB03KT P6SM -SHRA OVC040 WS020/24040KT
     FM231100 24004KT P6SM BKN060 WS020/27040KT=



000
FTUS41 KCTP 230503 AAA
TAFMDT
TAF AMD
KMDT 230503Z 2305/2324 VRB05KT P6SM SCT100 WS020/23035KT
     FM231400 18004KT P6SM SCT250=



000
FTUS41 KCTP 230503 AAA
TAFMDT
TAF AMD
KMDT 230503Z 2305/2324 VRB05KT P6SM SCT100 WS020/23035KT
     FM231400 18004KT P6SM SCT250=



000
FTUS41 KCTP 230503 AAA
TAFIPT
TAF AMD
KIPT 230503Z 2305/2324 VRB03KT P6SM -RA OVC035 WS020/27040KT
      TEMPO 2305/2309 5SM -FZRA BR OVC025
     FM231100 24004KT P6SM OVC050 WS020/27040KT
     FM231500 14005KT P6SM SCT250=



000
FTUS41 KCTP 230503 AAA
TAFIPT
TAF AMD
KIPT 230503Z 2305/2324 VRB03KT P6SM -RA OVC035 WS020/27040KT
      TEMPO 2305/2309 5SM -FZRA BR OVC025
     FM231100 24004KT P6SM OVC050 WS020/27040KT
     FM231500 14005KT P6SM SCT250=



000
FTUS41 KCTP 230133 AAA
TAFBFD
TAF AMD
KBFD 230133Z 2302/2324 22007KT P6SM -SHRA OVC025 WS018/25050KT
      TEMPO 2302/2304 3SM -SHRA BR OVC015
     FM230400 20008KT 5SM -RA BR BKN015 OVC030 WS019/25039KT
     FM230700 21008KT P6SM VCSH OVC015 WS020/25040KT
     FM231600 18006KT P6SM OVC025=



000
FTUS41 KCTP 230133 AAA
TAFBFD
TAF AMD
KBFD 230133Z 2302/2324 22007KT P6SM -SHRA OVC025 WS018/25050KT
      TEMPO 2302/2304 3SM -SHRA BR OVC015
     FM230400 20008KT 5SM -RA BR BKN015 OVC030 WS019/25039KT
     FM230700 21008KT P6SM VCSH OVC015 WS020/25040KT
     FM231600 18006KT P6SM OVC025=



000
FTUS41 KCTP 222343
TAFIPT
TAF
KIPT 222343Z 2300/2324 VRB04KT P6SM -RA OVC035 WS020/24030KT
     FM230300 VRB02KT P6SM BKN100 WS020/27040KT=



000
FTUS41 KCTP 222343
TAFJST
TAF
KJST 222343Z 2300/2324 21009KT P6SM VCSH OVC050 WS020/25040KT
     FM231400 20007KT P6SM BKN250=



000
FTUS41 KCTP 222343
TAFAOO
TAF
KAOO 222343Z 2300/2324 VRB05KT P6SM VCSH OVC060 WS020/25040KT
     FM230200 22003KT P6SM SCT050 BKN100 WS020/27040KT
     FM231400 18004KT P6SM SCT250=



000
FTUS41 KCTP 222343
TAFBFD
TAF
KBFD 222343Z 2300/2324 21008G17KT 6SM BR VCSH OVC025 WS018/25050KT
      TEMPO 2300/2303 3SM -SHRA BR SCT025 OVC035
     FM230400 20008KT 5SM -RA BR BKN015 OVC030 WS019/25039KT
     FM230700 21008KT P6SM VCSH OVC015 WS020/25040KT
     FM231600 18006KT P6SM OVC025=



000
FTUS41 KCTP 222343
TAFUNV
TAF
KUNV 222343Z 2300/2324 VRB03KT P6SM -SHRA OVC040 WS020/24040KT
     FM231100 24004KT P6SM BKN060 WS020/27040KT=



000
FTUS41 KCTP 222343
TAFMDT
TAF
KMDT 222343Z 2300/2324 VRB03KT P6SM SCT045 BKN060 WS020/23035KT
     FM231400 18004KT P6SM SCT250=



000
FTUS41 KCTP 222343
TAFMDT
TAF
KMDT 222343Z 2300/2324 VRB03KT P6SM SCT045 BKN060 WS020/23035KT
     FM231400 18004KT P6SM SCT250=



000
FTUS41 KCTP 222343
TAFUNV
TAF
KUNV 222343Z 2300/2324 VRB03KT P6SM -SHRA OVC040 WS020/24040KT
     FM231100 24004KT P6SM BKN060 WS020/27040KT=



000
FTUS41 KCTP 222343
TAFBFD
TAF
KBFD 222343Z 2300/2324 21008G17KT 6SM BR VCSH OVC025 WS018/25050KT
      TEMPO 2300/2303 3SM -SHRA BR SCT025 OVC035
     FM230400 20008KT 5SM -RA BR BKN015 OVC030 WS019/25039KT
     FM230700 21008KT P6SM VCSH OVC015 WS020/25040KT
     FM231600 18006KT P6SM OVC025=



000
FTUS41 KCTP 222343
TAFJST
TAF
KJST 222343Z 2300/2324 21009KT P6SM VCSH OVC050 WS020/25040KT
     FM231400 20007KT P6SM BKN250=



000
FTUS41 KCTP 222343
TAFAOO
TAF
KAOO 222343Z 2300/2324 VRB05KT P6SM VCSH OVC060 WS020/25040KT
     FM230200 22003KT P6SM SCT050 BKN100 WS020/27040KT
     FM231400 18004KT P6SM SCT250=



000
FTUS41 KCTP 222343
TAFIPT
TAF
KIPT 222343Z 2300/2324 VRB04KT P6SM -RA OVC035 WS020/24030KT
     FM230300 VRB02KT P6SM BKN100 WS020/27040KT=



000
FTUS41 KCTP 222120 AAD
TAFBFD
TAF AMD
KBFD 222120Z 2221/2318 23007KT 2SM BR VCSH OVC002 WS017/25045KT
     FM222300 19008KT 4SM BR VCSH OVC003 WS017/25045KT
     FM230400 20008KT 5SM -RA BR BKN015 OVC030 WS019/25039KT
     FM230700 21008KT P6SM VCSH OVC025 WS020/25040KT=



000
FTUS41 KCTP 222120 AAD
TAFBFD
TAF AMD
KBFD 222120Z 2221/2318 23007KT 2SM BR VCSH OVC002 WS017/25045KT
     FM222300 19008KT 4SM BR VCSH OVC003 WS017/25045KT
     FM230400 20008KT 5SM -RA BR BKN015 OVC030 WS019/25039KT
     FM230700 21008KT P6SM VCSH OVC025 WS020/25040KT=



000
FTUS41 KCTP 221954 AAC
TAFBFD
TAF AMD
KBFD 221954Z 2220/2318 20009G18KT 3SM -FZRA OVC005 WS017/25045KT
     FM222100 24010KT 6SM -SHRA BR OVC015 WS015/26040KT
     FM230400 20008KT 5SM -RA BR BKN015 OVC030 WS019/25039KT
     FM230700 21008KT P6SM VCSH OVC025 WS020/25040KT=



000
FTUS41 KCTP 221954 AAC
TAFBFD
TAF AMD
KBFD 221954Z 2220/2318 20009G18KT 3SM -FZRA OVC005 WS017/25045KT
     FM222100 24010KT 6SM -SHRA BR OVC015 WS015/26040KT
     FM230400 20008KT 5SM -RA BR BKN015 OVC030 WS019/25039KT
     FM230700 21008KT P6SM VCSH OVC025 WS020/25040KT=



000
FTUS41 KCTP 221940 AAB
TAFMDT
TAF AMD
KMDT 221940Z 2220/2318 21008KT P6SM BKN040 OVC250 WS020/23035KT
     FM230300 18004KT P6SM SCT100 BKN250=



000
FTUS41 KCTP 221940 AAB
TAFMDT
TAF AMD
KMDT 221940Z 2220/2318 21008KT P6SM BKN040 OVC250 WS020/23035KT
     FM230300 18004KT P6SM SCT100 BKN250=



000
FTUS41 KCTP 221939 AAA
TAFIPT
TAF AMD
KIPT 221939Z 2220/2318 12004KT P6SM -RA OVC040 WS020/24030KT
     FM222100 11005KT P6SM OVC040 WS020/26040KT
     FM230300 VRB02KT P6SM BKN100 WS020/27040KT=



000
FTUS41 KCTP 221939 AAA
TAFIPT
TAF AMD
KIPT 221939Z 2220/2318 12004KT P6SM -RA OVC040 WS020/24030KT
     FM222100 11005KT P6SM OVC040 WS020/26040KT
     FM230300 VRB02KT P6SM BKN100 WS020/27040KT=



000
FTUS41 KCTP 221938 AAB
TAFUNV
TAF AMD
KUNV 221938Z 2220/2318 23008KT 6SM -SHRA BKN030 OVC100
      WS020/24035KT
     FM230100 22003KT P6SM OVC040 WS020/26040KT
     FM231100 24004KT P6SM BKN060 WS020/27040KT=



000
FTUS41 KCTP 221938 AAA
TAFAOO
TAF AMD
KAOO 221938Z 2220/2318 21007KT P6SM -SHRA BKN040 WS018/25032KT
     FM222000 22008KT P6SM OVC040 WS020/26040KT
     FM230200 22003KT P6SM SCT050 BKN100 WS020/27040KT=



000
FTUS41 KCTP 221938 AAA
TAFAOO
TAF AMD
KAOO 221938Z 2220/2318 21007KT P6SM -SHRA BKN040 WS018/25032KT
     FM222000 22008KT P6SM OVC040 WS020/26040KT
     FM230200 22003KT P6SM SCT050 BKN100 WS020/27040KT=



000
FTUS41 KCTP 221938 AAB
TAFUNV
TAF AMD
KUNV 221938Z 2220/2318 23008KT 6SM -SHRA BKN030 OVC100
      WS020/24035KT
     FM230100 22003KT P6SM OVC040 WS020/26040KT
     FM231100 24004KT P6SM BKN060 WS020/27040KT=



000
FTUS41 KCTP 221937 AAB
TAFJST
TAF AMD
KJST 221937Z 2220/2318 21008G15KT P6SM VCSH BKN020 OVC040
      WS015/26040KT
     FM222300 23008KT P6SM VCSH SCT040 BKN100 WS020/26040KT
     FM230200 22005KT P6SM BKN100 WS010/27040KT=



000
FTUS41 KCTP 221937 AAB
TAFJST
TAF AMD
KJST 221937Z 2220/2318 21008G15KT P6SM VCSH BKN020 OVC040
      WS015/26040KT
     FM222300 23008KT P6SM VCSH SCT040 BKN100 WS020/26040KT
     FM230200 22005KT P6SM BKN100 WS010/27040KT=



000
FTUS41 KCTP 221825 AAB
TAFBFD
TAF AMD
KBFD 221825Z 2218/2318 20009G18KT 2SM -FZRA OVC005 WS017/25045KT
     FM221900 22010G15KT 5SM -SHRA BR SCT005 OVC010 WS017/25045KT
     FM222100 24010KT 6SM -SHRA BR OVC015 WS015/26040KT
     FM230400 20008KT 5SM -RA BR BKN015 OVC030 WS019/25039KT
     FM230700 21008KT P6SM VCSH OVC025 WS020/25040KT=



000
FTUS41 KCTP 221825 AAB
TAFBFD
TAF AMD
KBFD 221825Z 2218/2318 20009G18KT 2SM -FZRA OVC005 WS017/25045KT
     FM221900 22010G15KT 5SM -SHRA BR SCT005 OVC010 WS017/25045KT
     FM222100 24010KT 6SM -SHRA BR OVC015 WS015/26040KT
     FM230400 20008KT 5SM -RA BR BKN015 OVC030 WS019/25039KT
     FM230700 21008KT P6SM VCSH OVC025 WS020/25040KT=



000
FTUS41 KCTP 221807 AAA
TAFMDT
TAF AMD
KMDT 221807Z 2218/2318 21008KT P6SM BKN040 OVC250
     FM230300 18004KT P6SM SCT100 BKN250=



000
FTUS41 KCTP 221807 AAA
TAFMDT
TAF AMD
KMDT 221807Z 2218/2318 21008KT P6SM BKN040 OVC250
     FM230300 18004KT P6SM SCT100 BKN250=



000
FTUS41 KCTP 221803 AAA
TAFJST
TAF AMD
KJST 221803Z 2218/2318 22010G17KT 5SM -RA OVC017 WS015/26043KT
     FM221900 21008G15KT P6SM VCSH BKN020 OVC040 WS015/26040KT
     FM222300 23008KT P6SM VCSH SCT040 BKN100 WS020/26040KT
     FM230200 22005KT P6SM BKN100=



000
FTUS41 KCTP 221803 AAA
TAFJST
TAF AMD
KJST 221803Z 2218/2318 22010G17KT 5SM -RA OVC017 WS015/26043KT
     FM221900 21008G15KT P6SM VCSH BKN020 OVC040 WS015/26040KT
     FM222300 23008KT P6SM VCSH SCT040 BKN100 WS020/26040KT
     FM230200 22005KT P6SM BKN100=



000
FTUS41 KCTP 221802 AAA
TAFUNV
TAF AMD
KUNV 221802Z 2218/2318 23008KT 6SM -SHRA BKN030 OVC100
      WS020/24035KT
     FM230100 22003KT P6SM OVC040 WS020/24040KT
     FM231100 24004KT P6SM BKN060=



000
FTUS41 KCTP 221802 AAA
TAFUNV
TAF AMD
KUNV 221802Z 2218/2318 23008KT 6SM -SHRA BKN030 OVC100
      WS020/24035KT
     FM230100 22003KT P6SM OVC040 WS020/24040KT
     FM231100 24004KT P6SM BKN060=



000
FTUS41 KCTP 221757 AAA
TAFBFD
TAF AMD
KBFD 221757Z 2218/2318 20009G18KT 2SM -FZRA OVC005 WS017/25045KT
     FM221900 22010G15KT 5SM -SHRA BR SCT005 OVC010 WS017/25045KT
     FM222100 24010KT 6SM -SHRA BR OVC015 WS015/26040KT
     FM230400 20008KT 5SM -RA BR BKN015 OVC030 WS019/25039KT
     FM230700 21008KT P6SM VCSH OVC025 WS020/25040KT=



000
FTUS41 KCTP 221757 AAA
TAFBFD
TAF AMD
KBFD 221757Z 2218/2318 20009G18KT 2SM -FZRA OVC005 WS017/25045KT
     FM221900 22010G15KT 5SM -SHRA BR SCT005 OVC010 WS017/25045KT
     FM222100 24010KT 6SM -SHRA BR OVC015 WS015/26040KT
     FM230400 20008KT 5SM -RA BR BKN015 OVC030 WS019/25039KT
     FM230700 21008KT P6SM VCSH OVC025 WS020/25040KT=



000
FTUS41 KCTP 221739
TAFIPT
TAF
KIPT 221739Z 2218/2318 12004KT P6SM -RA OVC040 WS020/24030KT
     FM222100 11005KT P6SM OVC040
     FM230300 VRB02KT P6SM BKN100=



000
FTUS41 KCTP 221739
TAFMDT
TAF
KMDT 221739Z 2218/2318 21008G16KT P6SM BKN040 OVC250
     FM230300 18004KT P6SM SCT100 BKN250=



000
FTUS41 KCTP 221739
TAFJST
TAF
KJST 221739Z 2218/2318 22010G17KT 5SM -RA OVC020 WS015/26043KT
     FM221900 21008G15KT P6SM VCSH BKN020 OVC040 WS015/26040KT
     FM222300 23008KT P6SM VCSH SCT040 BKN100 WS020/26040KT
     FM230200 22005KT P6SM BKN100=



000
FTUS41 KCTP 221739
TAFUNV
TAF
KUNV 221739Z 2218/2318 23008KT 6SM -SHRA BKN035 OVC100
      WS020/24035KT
     FM230100 22003KT P6SM OVC050 WS020/24040KT
     FM231100 24004KT P6SM BKN060=



000
FTUS41 KCTP 221739
TAFBFD
TAF
KBFD 221739Z 2218/2318 20009G18KT 2SM -FZRA OVC007 WS017/25045KT
     FM221900 22010G15KT P6SM VCSH SCT005 OVC010 WS017/25045KT
     FM222100 24010KT 6SM -SHRA BR OVC015 WS015/26040KT
     FM230400 20008KT 5SM -RA BR BKN015 OVC030 WS019/25039KT
     FM230700 21008KT P6SM VCSH OVC025 WS020/25040KT=



000
FTUS41 KCTP 221739
TAFJST
TAF
KJST 221739Z 2218/2318 22010G17KT 5SM -RA OVC020 WS015/26043KT
     FM221900 21008G15KT P6SM VCSH BKN020 OVC040 WS015/26040KT
     FM222300 23008KT P6SM VCSH SCT040 BKN100 WS020/26040KT
     FM230200 22005KT P6SM BKN100=



000
FTUS41 KCTP 221739
TAFIPT
TAF
KIPT 221739Z 2218/2318 12004KT P6SM -RA OVC040 WS020/24030KT
     FM222100 11005KT P6SM OVC040
     FM230300 VRB02KT P6SM BKN100=



000
FTUS41 KCTP 221739
TAFBFD
TAF
KBFD 221739Z 2218/2318 20009G18KT 2SM -FZRA OVC007 WS017/25045KT
     FM221900 22010G15KT P6SM VCSH SCT005 OVC010 WS017/25045KT
     FM222100 24010KT 6SM -SHRA BR OVC015 WS015/26040KT
     FM230400 20008KT 5SM -RA BR BKN015 OVC030 WS019/25039KT
     FM230700 21008KT P6SM VCSH OVC025 WS020/25040KT=



000
FTUS41 KCTP 221739
TAFMDT
TAF
KMDT 221739Z 2218/2318 21008G16KT P6SM BKN040 OVC250
     FM230300 18004KT P6SM SCT100 BKN250=



000
FTUS41 KCTP 221739
TAFAOO
TAF
KAOO 221739Z 2218/2318 21007KT P6SM -SHRA BKN040 WS018/25032KT
     FM222000 22008KT P6SM OVC040
     FM230200 22003KT P6SM SCT050 BKN100=



000
FTUS41 KCTP 221739
TAFAOO
TAF
KAOO 221739Z 2218/2318 21007KT P6SM -SHRA BKN040 WS018/25032KT
     FM222000 22008KT P6SM OVC040
     FM230200 22003KT P6SM SCT050 BKN100=



000
FTUS41 KCTP 221739
TAFUNV
TAF
KUNV 221739Z 2218/2318 23008KT 6SM -SHRA BKN035 OVC100
      WS020/24035KT
     FM230100 22003KT P6SM OVC050 WS020/24040KT
     FM231100 24004KT P6SM BKN060=



000
FTUS41 KCTP 221659 AAA
TAFUNV
TAF AMD
KUNV 221659Z 2217/2312 23008KT 6SM -SHRA BKN035 OVC100
      WS020/24030KT
     FM230100 22003KT P6SM SCT050 WS020/24040KT
     FM231100 24004KT P6SM SCT060=



000
FTUS41 KCTP 221659 AAA
TAFUNV
TAF AMD
KUNV 221659Z 2217/2312 23008KT 6SM -SHRA BKN035 OVC100
      WS020/24030KT
     FM230100 22003KT P6SM SCT050 WS020/24040KT
     FM231100 24004KT P6SM SCT060=



000
FTUS41 KCTP 221642 AAC
TAFBFD
TAF AMD
KBFD 221642Z 2217/2312 20009G18KT 2SM -FZRA OVC012 WS017/25045KT
     FM221900 22010G15KT 4SM -RA BR OVC010 WS017/25045KT
     FM230400 20008KT 5SM -RA BKN015 OVC030 WS019/25039KT
     FM230700 21008KT P6SM VCSH OVC025 WS020/25040KT=



000
FTUS41 KCTP 221642 AAC
TAFBFD
TAF AMD
KBFD 221642Z 2217/2312 20009G18KT 2SM -FZRA OVC012 WS017/25045KT
     FM221900 22010G15KT 4SM -RA BR OVC010 WS017/25045KT
     FM230400 20008KT 5SM -RA BKN015 OVC030 WS019/25039KT
     FM230700 21008KT P6SM VCSH OVC025 WS020/25040KT=



000
FTUS41 KCTP 221637 AAA
TAFJST
TAF AMD
KJST 221637Z 2217/2312 22010G17KT 6SM -RA BKN025 WS014/25035KT
     FM221800 22010G17KT 5SM -RA OVC020 WS020/26043KT
     FM222300 23008KT P6SM SCT040 BKN100 WS020/26040KT
     FM230200 22009KT P6SM BKN100=



000
FTUS41 KCTP 221637 AAA
TAFJST
TAF AMD
KJST 221637Z 2217/2312 22010G17KT 6SM -RA BKN025 WS014/25035KT
     FM221800 22010G17KT 5SM -RA OVC020 WS020/26043KT
     FM222300 23008KT P6SM SCT040 BKN100 WS020/26040KT
     FM230200 22009KT P6SM BKN100=



000
FTUS41 KCTP 221532 AAB
TAFBFD
TAF AMD
KBFD 221532Z 2216/2312 20009G18KT P6SM VCSH OVC019 WS017/25045KT
     FM221700 20009G18KT 4SM -FZRAPL OVC015 WS017/25045KT
     FM221900 22010G15KT 4SM -RA BR OVC012 WS017/25045KT
     FM230400 20008KT 5SM -RA BKN025 OVC050 WS019/25039KT
     FM230700 21008KT P6SM VCSH OVC025 WS020/25040KT=



000
FTUS41 KCTP 221532 AAB
TAFBFD
TAF AMD
KBFD 221532Z 2216/2312 20009G18KT P6SM VCSH OVC019 WS017/25045KT
     FM221700 20009G18KT 4SM -FZRAPL OVC015 WS017/25045KT
     FM221900 22010G15KT 4SM -RA BR OVC012 WS017/25045KT
     FM230400 20008KT 5SM -RA BKN025 OVC050 WS019/25039KT
     FM230700 21008KT P6SM VCSH OVC025 WS020/25040KT=



000
FTUS41 KCTP 221408 AAA
TAFBFD
TAF AMD
KBFD 221408Z 2214/2312 21008KT P6SM SKC WS017/25040KT
     FM221600 20009G18KT 4SM -FZRAPL OVC025 WS017/25045KT
     FM221900 22010G15KT 4SM -RA BR BKN015 OVC025 WS017/25045KT
     FM230400 20008KT 5SM -RA BKN025 OVC050 WS019/25039KT
     FM230700 21008KT P6SM VCSH OVC025 WS020/25040KT=



000
FTUS41 KCTP 221408 AAA
TAFBFD
TAF AMD
KBFD 221408Z 2214/2312 21008KT P6SM SKC WS017/25040KT
     FM221600 20009G18KT 4SM -FZRAPL OVC025 WS017/25045KT
     FM221900 22010G15KT 4SM -RA BR BKN015 OVC025 WS017/25045KT
     FM230400 20008KT 5SM -RA BKN025 OVC050 WS019/25039KT
     FM230700 21008KT P6SM VCSH OVC025 WS020/25040KT=



000
FTUS41 KCTP 221142
TAFIPT
TAF
KIPT 221142Z 2212/2312 00000KT P6SM SKC
     FM222100 11005KT P6SM SCT250
     FM230300 VRB02KT P6SM SCT250=



000
FTUS41 KCTP 221142
TAFBFD
TAF
KBFD 221142Z 2212/2312 21008KT P6SM SKC WS017/25040KT
     FM221600 20009G18KT 4SM -FZRA OVC025 WS017/25045KT
     FM221900 22010G15KT 4SM -RA BR BKN015 OVC025 WS017/25045KT
     FM230400 20008KT 5SM -RA BKN025 OVC050 WS019/25039KT
     FM230700 21008KT P6SM VCSH OVC025 WS020/25040KT=



000
FTUS41 KCTP 221142
TAFAOO
TAF
KAOO 221142Z 2212/2312 24003KT P6SM SKC
     FM221500 21007KT P6SM SCT040 BKN250 WS018/25032KT
     FM230200 22003KT P6SM SCT250=



000
FTUS41 KCTP 221142
TAFJST
TAF
KJST 221142Z 2212/2312 19008KT P6SM SKC
     FM221500 22010KT P6SM BKN250 WS014/25035KT
     FM221800 22006KT 5SM -RA OVC050 WS020/26043KT
     FM222300 23008KT P6SM SCT040 BKN100 WS020/26040KT
     FM230200 22009KT P6SM BKN100=



000
FTUS41 KCTP 221142
TAFMDT
TAF
KMDT 221142Z 2212/2312 00000KT P6SM SKC
     FM221700 19006KT P6SM BKN040 OVC250
     FM230300 VRB02KT P6SM SCT250=



000
FTUS41 KCTP 221142
TAFUNV
TAF
KUNV 221142Z 2212/2312 00000KT P6SM SKC
     FM221500 23005KT P6SM VCSH BKN050 OVC100 WS020/24030KT
     FM230100 22003KT P6SM SCT050 WS020/24040KT
     FM231100 24004KT P6SM SCT060=



000
FTUS41 KCTP 221142
TAFUNV
TAF
KUNV 221142Z 2212/2312 00000KT P6SM SKC
     FM221500 23005KT P6SM VCSH BKN050 OVC100 WS020/24030KT
     FM230100 22003KT P6SM SCT050 WS020/24040KT
     FM231100 24004KT P6SM SCT060=



000
FTUS41 KCTP 221142
TAFIPT
TAF
KIPT 221142Z 2212/2312 00000KT P6SM SKC
     FM222100 11005KT P6SM SCT250
     FM230300 VRB02KT P6SM SCT250=



000
FTUS41 KCTP 221142
TAFJST
TAF
KJST 221142Z 2212/2312 19008KT P6SM SKC
     FM221500 22010KT P6SM BKN250 WS014/25035KT
     FM221800 22006KT 5SM -RA OVC050 WS020/26043KT
     FM222300 23008KT P6SM SCT040 BKN100 WS020/26040KT
     FM230200 22009KT P6SM BKN100=



000
FTUS41 KCTP 221142
TAFMDT
TAF
KMDT 221142Z 2212/2312 00000KT P6SM SKC
     FM221700 19006KT P6SM BKN040 OVC250
     FM230300 VRB02KT P6SM SCT250=



000
FTUS41 KCTP 221142
TAFBFD
TAF
KBFD 221142Z 2212/2312 21008KT P6SM SKC WS017/25040KT
     FM221600 20009G18KT 4SM -FZRA OVC025 WS017/25045KT
     FM221900 22010G15KT 4SM -RA BR BKN015 OVC025 WS017/25045KT
     FM230400 20008KT 5SM -RA BKN025 OVC050 WS019/25039KT
     FM230700 21008KT P6SM VCSH OVC025 WS020/25040KT=



000
FTUS41 KCTP 221142
TAFAOO
TAF
KAOO 221142Z 2212/2312 24003KT P6SM SKC
     FM221500 21007KT P6SM SCT040 BKN250 WS018/25032KT
     FM230200 22003KT P6SM SCT250=



000
FTUS41 KCTP 220940 AAA
TAFMDT
TAF AMD
KMDT 220940Z 2210/2306 01003KT P6SM SKC
     FM221700 19006KT P6SM BKN040 OVC250
     FM230300 VRB02KT P6SM SCT250=



000
FTUS41 KCTP 220940 AAA
TAFAOO
TAF AMD
KAOO 220940Z 2210/2306 00000KT P6SM SKC
     FM221500 21007KT P6SM SCT040 BKN250 WS018/25032KT
     FM230200 22003KT P6SM SCT250=



000
FTUS41 KCTP 220940 AAA
TAFAOO
TAF AMD
KAOO 220940Z 2210/2306 00000KT P6SM SKC
     FM221500 21007KT P6SM SCT040 BKN250 WS018/25032KT
     FM230200 22003KT P6SM SCT250=



000
FTUS41 KCTP 220940 AAA
TAFAOO
TAF AMD
KAOO 220940Z 2210/2306 00000KT P6SM SKC
     FM221500 21007KT P6SM SCT040 BKN250 WS018/25032KT
     FM230200 22003KT P6SM SCT250=



000
FTUS41 KCTP 220940 AAA
TAFUNV
TAF AMD
KUNV 220940Z 2210/2306 00000KT P6SM SKC
     FM221500 23005KT P6SM VCSH BKN050 OVC100 WS020/24030KT
     FM230100 22003KT P6SM SCT050 WS020/24040KT=



000
FTUS41 KCTP 220940 AAA
TAFIPT
TAF AMD
KIPT 220940Z 2210/2306 00000KT P6SM SKC
     FM222100 11005KT P6SM SCT250
     FM230300 VRB02KT P6SM SCT250=



000
FTUS41 KCTP 220940 AAA
TAFMDT
TAF AMD
KMDT 220940Z 2210/2306 01003KT P6SM SKC
     FM221700 19006KT P6SM BKN040 OVC250
     FM230300 VRB02KT P6SM SCT250=



000
FTUS41 KCTP 220940 AAA
TAFBFD
TAF AMD
KBFD 220940Z 2210/2306 17003KT P6SM SKC WS020/25032KT
     FM221200 20009KT P6SM BKN050 WS017/25040KT
     FM221600 20009G18KT P6SM -FZRA OVC025 WS017/25045KT
     FM222300 20008KT P6SM VCSH OVC050 WS019/25039KT=



000
FTUS41 KCTP 220940 AAA
TAFBFD
TAF AMD
KBFD 220940Z 2210/2306 17003KT P6SM SKC WS020/25032KT
     FM221200 20009KT P6SM BKN050 WS017/25040KT
     FM221600 20009G18KT P6SM -FZRA OVC025 WS017/25045KT
     FM222300 20008KT P6SM VCSH OVC050 WS019/25039KT=



000
FTUS41 KCTP 220940 AAA
TAFJST
TAF AMD
KJST 220940Z 2210/2306 19005KT P6SM SKC
     FM221500 22010KT P6SM BKN250 WS014/25035KT
     FM221800 22006KT 5SM -RA OVC050 WS020/26043KT
     FM222300 23008KT P6SM SCT040=



000
FTUS41 KCTP 220940 AAA
TAFIPT
TAF AMD
KIPT 220940Z 2210/2306 00000KT P6SM SKC
     FM222100 11005KT P6SM SCT250
     FM230300 VRB02KT P6SM SCT250=



000
FTUS41 KCTP 220940 AAA
TAFBFD
TAF AMD
KBFD 220940Z 2210/2306 17003KT P6SM SKC WS020/25032KT
     FM221200 20009KT P6SM BKN050 WS017/25040KT
     FM221600 20009G18KT P6SM -FZRA OVC025 WS017/25045KT
     FM222300 20008KT P6SM VCSH OVC050 WS019/25039KT=



000
FTUS41 KCTP 220940 AAA
TAFJST
TAF AMD
KJST 220940Z 2210/2306 19005KT P6SM SKC
     FM221500 22010KT P6SM BKN250 WS014/25035KT
     FM221800 22006KT 5SM -RA OVC050 WS020/26043KT
     FM222300 23008KT P6SM SCT040=



000
FTUS41 KCTP 220940 AAA
TAFJST
TAF AMD
KJST 220940Z 2210/2306 19005KT P6SM SKC
     FM221500 22010KT P6SM BKN250 WS014/25035KT
     FM221800 22006KT 5SM -RA OVC050 WS020/26043KT
     FM222300 23008KT P6SM SCT040=



000
FTUS41 KCTP 220940 AAA
TAFUNV
TAF AMD
KUNV 220940Z 2210/2306 00000KT P6SM SKC
     FM221500 23005KT P6SM VCSH BKN050 OVC100 WS020/24030KT
     FM230100 22003KT P6SM SCT050 WS020/24040KT=



000
FTUS41 KCTP 220940 AAA
TAFMDT
TAF AMD
KMDT 220940Z 2210/2306 01003KT P6SM SKC
     FM221700 19006KT P6SM BKN040 OVC250
     FM230300 VRB02KT P6SM SCT250=



000
FTUS41 KCTP 220940 AAA
TAFIPT
TAF AMD
KIPT 220940Z 2210/2306 00000KT P6SM SKC
     FM222100 11005KT P6SM SCT250
     FM230300 VRB02KT P6SM SCT250=



000
FTUS41 KCTP 220940 AAA
TAFUNV
TAF AMD
KUNV 220940Z 2210/2306 00000KT P6SM SKC
     FM221500 23005KT P6SM VCSH BKN050 OVC100 WS020/24030KT
     FM230100 22003KT P6SM SCT050 WS020/24040KT=



000
FTUS41 KCTP 220540
TAFAOO
TAF
KAOO 220540Z 2206/2306 00000KT P6SM SKC
     FM221500 21007KT P6SM SCT250 WS018/25032KT=



000
FTUS41 KCTP 220540
TAFJST
TAF
KJST 220540Z 2206/2306 19005KT P6SM SKC
     FM221500 22010KT P6SM BKN250 WS014/25035KT=



000
FTUS41 KCTP 220540
TAFIPT
TAF
KIPT 220540Z 2206/2306 00000KT P6SM SKC
     FM221500 11005KT P6SM SCT250=



000
FTUS41 KCTP 220540
TAFMDT
TAF
KMDT 220540Z 2206/2306 01003KT P6SM SKC
     FM221500 19006KT P6SM SCT250=



000
FTUS41 KCTP 220540
TAFBFD
TAF
KBFD 220540Z 2206/2306 17003KT P6SM SKC WS020/25032KT
     FM221200 20009KT P6SM BKN050 WS017/25040KT
     FM221600 20009G18KT P6SM -FZRA OVC025 WS017/25045KT
     FM222300 20008KT P6SM BKN050=



000
FTUS41 KCTP 220540
TAFUNV
TAF
KUNV 220540Z 2206/2306 00000KT P6SM SKC
     FM221500 23005KT P6SM SCT050 BKN100 WS020/24030KT=



000
FTUS41 KCTP 220540
TAFIPT
TAF
KIPT 220540Z 2206/2306 00000KT P6SM SKC
     FM221500 11005KT P6SM SCT250=



000
FTUS41 KCTP 220540
TAFJST
TAF
KJST 220540Z 2206/2306 19005KT P6SM SKC
     FM221500 22010KT P6SM BKN250 WS014/25035KT=



000
FTUS41 KCTP 220540
TAFBFD
TAF
KBFD 220540Z 2206/2306 17003KT P6SM SKC WS020/25032KT
     FM221200 20009KT P6SM BKN050 WS017/25040KT
     FM221600 20009G18KT P6SM -FZRA OVC025 WS017/25045KT
     FM222300 20008KT P6SM BKN050=



000
FTUS41 KCTP 220540
TAFUNV
TAF
KUNV 220540Z 2206/2306 00000KT P6SM SKC
     FM221500 23005KT P6SM SCT050 BKN100 WS020/24030KT=



000
FTUS41 KCTP 220540
TAFAOO
TAF
KAOO 220540Z 2206/2306 00000KT P6SM SKC
     FM221500 21007KT P6SM SCT250 WS018/25032KT=



000
FTUS41 KCTP 220540
TAFMDT
TAF
KMDT 220540Z 2206/2306 01003KT P6SM SKC
     FM221500 19006KT P6SM SCT250=



000
FTUS41 KCTP 220410 AAA
TAFBFD
TAF AMD
KBFD 220410Z 2204/2224 20005KT P6SM SCT250
     FM221200 20009KT P6SM BKN050
     FM221600 20009G18KT P6SM -FZRA OVC025
     FM222300 20008KT P6SM BKN050=



000
FTUS41 KCTP 220410 AAA
TAFMDT
TAF AMD
KMDT 220410Z 2204/2224 31005KT P6SM SKC=



000
FTUS41 KCTP 220410 AAA
TAFJST
TAF AMD
KJST 220410Z 2204/2224 27006KT P6SM SKC=



000
FTUS41 KCTP 220410 AAA
TAFUNV
TAF AMD
KUNV 220410Z 2204/2224 27008KT P6SM SKC=



000
FTUS41 KCTP 220410 AAA
TAFIPT
TAF AMD
KIPT 220410Z 2204/2224 25004KT P6SM SKC=



000
FTUS41 KCTP 220410 AAA
TAFBFD
TAF AMD
KBFD 220410Z 2204/2224 20005KT P6SM SCT250
     FM221200 20009KT P6SM BKN050
     FM221600 20009G18KT P6SM -FZRA OVC025
     FM222300 20008KT P6SM BKN050=



000
FTUS41 KCTP 220410 AAA
TAFIPT
TAF AMD
KIPT 220410Z 2204/2224 25004KT P6SM SKC=



000
FTUS41 KCTP 220410 AAA
TAFJST
TAF AMD
KJST 220410Z 2204/2224 27006KT P6SM SKC=



000
FTUS41 KCTP 220410 AAA
TAFAOO
TAF AMD
KAOO 220410Z 2204/2224 29005KT P6SM SKC=



000
FTUS41 KCTP 220410 AAA
TAFMDT
TAF AMD
KMDT 220410Z 2204/2224 31005KT P6SM SKC=



000
FTUS41 KCTP 220410 AAA
TAFUNV
TAF AMD
KUNV 220410Z 2204/2224 27008KT P6SM SKC=



000
FTUS41 KCTP 220410 AAA
TAFAOO
TAF AMD
KAOO 220410Z 2204/2224 29005KT P6SM SKC=



000
FTUS41 KCTP 220410 AAA
TAFUNV
TAF AMD
KUNV 220410Z 2204/2224 27008KT P6SM SKC=



000
FTUS41 KCTP 220410 AAA
TAFBFD
TAF AMD
KBFD 220410Z 2204/2224 20005KT P6SM SCT250
     FM221200 20009KT P6SM BKN050
     FM221600 20009G18KT P6SM -FZRA OVC025
     FM222300 20008KT P6SM BKN050=



000
FTUS41 KCTP 220410 AAA
TAFAOO
TAF AMD
KAOO 220410Z 2204/2224 29005KT P6SM SKC=



000
FTUS41 KCTP 220410 AAA
TAFMDT
TAF AMD
KMDT 220410Z 2204/2224 31005KT P6SM SKC=



000
FTUS41 KCTP 220410 AAA
TAFJST
TAF AMD
KJST 220410Z 2204/2224 27006KT P6SM SKC=



000
FTUS41 KCTP 220410 AAA
TAFBFD
TAF AMD
KBFD 220410Z 2204/2224 20005KT P6SM SCT250
     FM221200 20009KT P6SM BKN050
     FM221600 20009G18KT P6SM -FZRA OVC025
     FM222300 20008KT P6SM BKN050=



000
FTUS41 KCTP 220410 AAA
TAFIPT
TAF AMD
KIPT 220410Z 2204/2224 25004KT P6SM SKC=



000
FTUS41 KCTP 220410 AAA
TAFUNV
TAF AMD
KUNV 220410Z 2204/2224 27008KT P6SM SKC=



000
FTUS41 KCTP 220410 AAA
TAFIPT
TAF AMD
KIPT 220410Z 2204/2224 25004KT P6SM SKC=



000
FTUS41 KCTP 220410 AAA
TAFMDT
TAF AMD
KMDT 220410Z 2204/2224 31005KT P6SM SKC=



000
FTUS41 KCTP 220410 AAA
TAFAOO
TAF AMD
KAOO 220410Z 2204/2224 29005KT P6SM SKC=



000
FTUS41 KCTP 220410 AAA
TAFJST
TAF AMD
KJST 220410Z 2204/2224 27006KT P6SM SKC=



000
FTUS41 KCTP 212345
TAFUNV
TAF
KUNV 212345Z 2200/2224 27008KT P6SM SKC=



000
FTUS41 KCTP 212345
TAFAOO
TAF
KAOO 212345Z 2200/2224 29005KT P6SM SKC=



000
FTUS41 KCTP 212345
TAFIPT
TAF
KIPT 212345Z 2200/2224 25004KT P6SM SKC=



000
FTUS41 KCTP 212345
TAFJST
TAF
KJST 212345Z 2200/2224 27006KT P6SM SKC=



000
FTUS41 KCTP 212345
TAFBFD
TAF
KBFD 212345Z 2200/2224 28009KT P6SM SCT025
     FM220200 21004KT P6SM SCT050=



000
FTUS41 KCTP 212345
TAFMDT
TAF
KMDT 212345Z 2200/2224 31005KT P6SM SKC=



000
FTUS41 KCTP 212345
TAFBFD
TAF
KBFD 212345Z 2200/2224 28009KT P6SM SCT025
     FM220200 21004KT P6SM SCT050=



000
FTUS41 KCTP 212345
TAFJST
TAF
KJST 212345Z 2200/2224 27006KT P6SM SKC=



000
FTUS41 KCTP 212345
TAFIPT
TAF
KIPT 212345Z 2200/2224 25004KT P6SM SKC=



000
FTUS41 KCTP 212345
TAFAOO
TAF
KAOO 212345Z 2200/2224 29005KT P6SM SKC=



000
FTUS41 KCTP 212345
TAFUNV
TAF
KUNV 212345Z 2200/2224 27008KT P6SM SKC=



000
FTUS41 KCTP 212345
TAFMDT
TAF
KMDT 212345Z 2200/2224 31005KT P6SM SKC=



000
FTUS41 KCTP 212208 AAA
TAFBFD
TAF AMD
KBFD 212208Z 2122/2218 28009KT P6SM OVC030
     FM220000 27003KT P6SM SCT050=



000
FTUS41 KCTP 212208 AAA
TAFBFD
TAF AMD
KBFD 212208Z 2122/2218 28009KT P6SM OVC030
     FM220000 27003KT P6SM SCT050=



000
FTUS41 KCTP 212208 AAB
TAFIPT
TAF AMD
KIPT 212208Z 2122/2218 28008KT P6SM SKC=



000
FTUS41 KCTP 212208 AAC
TAFJST
TAF AMD
KJST 212208Z 2122/2218 29009KT P6SM SKC
     FM212300 28006KT P6SM SCT040=



000
FTUS41 KCTP 212208 AAA
TAFMDT
TAF AMD
KMDT 212208Z 2122/2218 30010KT P6SM SKC
     FM220000 29006KT P6SM SKC=



000
FTUS41 KCTP 212208 AAA
TAFAOO
TAF AMD
KAOO 212208Z 2122/2218 31009KT P6SM SKC
     FM220100 28006KT P6SM SKC=



000
FTUS41 KCTP 212208 AAA
TAFUNV
TAF AMD
KUNV 212208Z 2122/2218 27009KT P6SM SCT035
     FM212300 28006KT P6SM SKC=



000
FTUS41 KCTP 212208 AAA
TAFAOO
TAF AMD
KAOO 212208Z 2122/2218 31009KT P6SM SKC
     FM220100 28006KT P6SM SKC=



000
FTUS41 KCTP 212208 AAC
TAFJST
TAF AMD
KJST 212208Z 2122/2218 29009KT P6SM SKC
     FM212300 28006KT P6SM SCT040=



000
FTUS41 KCTP 212208 AAA
TAFUNV
TAF AMD
KUNV 212208Z 2122/2218 27009KT P6SM SCT035
     FM212300 28006KT P6SM SKC=



000
FTUS41 KCTP 212208 AAB
TAFIPT
TAF AMD
KIPT 212208Z 2122/2218 28008KT P6SM SKC=



000
FTUS41 KCTP 212208 AAA
TAFMDT
TAF AMD
KMDT 212208Z 2122/2218 30010KT P6SM SKC
     FM220000 29006KT P6SM SKC=



000
FTUS41 KCTP 212117 AAA
TAFIPT
TAF AMD
KIPT 212117Z 2121/2218 27008KT P6SM FEW060
     FM212200 28006KT P6SM SKC=



000
FTUS41 KCTP 212117 AAA
TAFIPT
TAF AMD
KIPT 212117Z 2121/2218 27008KT P6SM FEW060
     FM212200 28006KT P6SM SKC=



000
FTUS41 KCTP 212114 AAB
TAFJST
TAF AMD
KJST 212114Z 2121/2218 29010G15KT P6SM FEW030
     FM212300 28006KT P6SM SCT040=



000
FTUS41 KCTP 211903 AAA
TAFJST
TAF AMD
KJST 211903Z 2119/2218 30012G18KT P6SM VCSH SCT025 BKN035
      TEMPO 2119/2120 3SM -SHSN BKN025
     FM212000 29010G15KT P6SM SCT025 BKN040
     FM212300 28006KT P6SM SCT040=



000
FTUS41 KCTP 211903 AAA
TAFJST
TAF AMD
KJST 211903Z 2119/2218 30012G18KT P6SM VCSH SCT025 BKN035
      TEMPO 2119/2120 3SM -SHSN BKN025
     FM212000 29010G15KT P6SM SCT025 BKN040
     FM212300 28006KT P6SM SCT040=



000
FTUS41 KCTP 211731
TAFAOO
TAF
KAOO 211731Z 2118/2218 30010G15KT P6SM SCT025 BKN035
     FM212300 28006KT P6SM SKC=



000
FTUS41 KCTP 211731
TAFAOO
TAF
KAOO 211731Z 2118/2218 30010G15KT P6SM SCT025 BKN035
     FM212300 28006KT P6SM SKC=



000
FTUS41 KCTP 211731
TAFMDT
TAF
KMDT 211731Z 2118/2218 30012G18KT P6SM SCT050
     FM220000 29006KT P6SM SKC=



000
FTUS41 KCTP 211731
TAFIPT
TAF
KIPT 211731Z 2118/2218 29012G18KT P6SM SCT040
     FM212200 28006KT P6SM SKC=



000
FTUS41 KCTP 211731
TAFUNV
TAF
KUNV 211731Z 2118/2218 29012G18KT P6SM SCT016 BKN035
     FM212300 28006KT P6SM SKC=



000
FTUS41 KCTP 211731
TAFIPT
TAF
KIPT 211731Z 2118/2218 29012G18KT P6SM SCT040
     FM212200 28006KT P6SM SKC=



000
FTUS41 KCTP 211731
TAFUNV
TAF
KUNV 211731Z 2118/2218 29012G18KT P6SM SCT016 BKN035
     FM212300 28006KT P6SM SKC=



000
FTUS41 KCTP 211731
TAFJST
TAF
KJST 211731Z 2118/2218 30012G18KT P6SM VCSH BKN018
      TEMPO 2118/2120 1SM -SHSN OVC025
     FM212000 29010G15KT P6SM SCT025 BKN040
     FM212300 28006KT P6SM SCT040=



000
FTUS41 KCTP 211731
TAFJST
TAF
KJST 211731Z 2118/2218 30012G18KT P6SM VCSH BKN018
      TEMPO 2118/2120 1SM -SHSN OVC025
     FM212000 29010G15KT P6SM SCT025 BKN040
     FM212300 28006KT P6SM SCT040=



000
FTUS41 KCTP 211731
TAFBFD
TAF
KBFD 211731Z 2118/2218 27010G15KT P6SM VCSH SCT013 BKN020
     FM212000 27008KT P6SM SCT025 SCT040
     FM220000 27003KT P6SM SCT050=



000
FTUS41 KCTP 211731
TAFBFD
TAF
KBFD 211731Z 2118/2218 27010G15KT P6SM VCSH SCT013 BKN020
     FM212000 27008KT P6SM SCT025 SCT040
     FM220000 27003KT P6SM SCT050=



000
FTUS41 KCTP 211731
TAFMDT
TAF
KMDT 211731Z 2118/2218 30012G18KT P6SM SCT050
     FM220000 29006KT P6SM SKC=



000
FTUS41 KCTP 211654 AAC
TAFJST
TAF AMD
KJST 211654Z 2117/2212 30012G18KT P6SM VCSH BKN018
      TEMPO 2117/2119 1SM -SHSN OVC025
     FM211900 24012G18KT P6SM SCT040
     FM212300 24008KT P6SM SCT040=



000
FTUS41 KCTP 211654 AAC
TAFJST
TAF AMD
KJST 211654Z 2117/2212 30012G18KT P6SM VCSH BKN018
      TEMPO 2117/2119 1SM -SHSN OVC025
     FM211900 24012G18KT P6SM SCT040
     FM212300 24008KT P6SM SCT040=



000
FTUS41 KCTP 211524 AAA
TAFUNV
TAF AMD
KUNV 211524Z 2115/2212 28012G18KT P6SM SCT016 BKN035
     FM212300 25006KT P6SM SKC=



000
FTUS41 KCTP 211524 AAA
TAFIPT
TAF AMD
KIPT 211524Z 2115/2212 28012G18KT P6SM SCT040
     FM212100 25006KT P6SM SKC=



000
FTUS41 KCTP 211524 AAA
TAFUNV
TAF AMD
KUNV 211524Z 2115/2212 28012G18KT P6SM SCT016 BKN035
     FM212300 25006KT P6SM SKC=



000
FTUS41 KCTP 211524 AAA
TAFIPT
TAF AMD
KIPT 211524Z 2115/2212 28012G18KT P6SM SCT040
     FM212100 25006KT P6SM SKC=



000
FTUS41 KCTP 211524 AAA
TAFMDT
TAF AMD
KMDT 211524Z 2115/2212 30012G18KT P6SM FEW060
     FM220000 25006KT P6SM SKC=



000
FTUS41 KCTP 211524 AAA
TAFBFD
TAF AMD
KBFD 211524Z 2115/2212 27010G15KT P6SM VCSH SCT013 BKN020
     FM211800 27008KT P6SM SCT025 SCT040
     FM220000 27003KT P6SM OVC050=



000
FTUS41 KCTP 211524 AAB
TAFAOO
TAF AMD
KAOO 211524Z 2115/2212 30010G15KT P6SM SCT025 BKN035
     FM212300 25006KT P6SM SKC=



000
FTUS41 KCTP 211524 AAA
TAFMDT
TAF AMD
KMDT 211524Z 2115/2212 30012G18KT P6SM FEW060
     FM220000 25006KT P6SM SKC=



000
FTUS41 KCTP 211524 AAB
TAFAOO
TAF AMD
KAOO 211524Z 2115/2212 30010G15KT P6SM SCT025 BKN035
     FM212300 25006KT P6SM SKC=



000
FTUS41 KCTP 211524 AAB
TAFJST
TAF AMD
KJST 211524Z 2115/2212 30012G18KT P6SM VCSH BKN018
     FM211900 24012G18KT P6SM SCT040
     FM212300 24008KT P6SM SCT040=



000
FTUS41 KCTP 211524 AAB
TAFJST
TAF AMD
KJST 211524Z 2115/2212 30012G18KT P6SM VCSH BKN018
     FM211900 24012G18KT P6SM SCT040
     FM212300 24008KT P6SM SCT040=



000
FTUS41 KCTP 211524 AAA
TAFBFD
TAF AMD
KBFD 211524Z 2115/2212 27010G15KT P6SM VCSH SCT013 BKN020
     FM211800 27008KT P6SM SCT025 SCT040
     FM220000 27003KT P6SM OVC050=



000
FTUS41 KCTP 211441 AAA
TAFJST
TAF AMD
KJST 211441Z 2115/2212 28012G18KT P6SM VCSH BKN020
     FM211900 24010G20KT P6SM SCT040
     FM212300 24008KT P6SM SCT040=



000
FTUS41 KCTP 211441 AAA
TAFJST
TAF AMD
KJST 211441Z 2115/2212 28012G18KT P6SM VCSH BKN020
     FM211900 24010G20KT P6SM SCT040
     FM212300 24008KT P6SM SCT040=



000
FTUS41 KCTP 211441 AAA
TAFAOO
TAF AMD
KAOO 211441Z 2115/2212 30010G15KT P6SM SCT025
     FM212300 25006KT P6SM SKC=



000
FTUS41 KCTP 211143
TAFJST
TAF
KJST 211143Z 2112/2212 28015G21KT P6SM VCSH BKN019 OVC026
     FM211900 24010G20KT P6SM SCT040
     FM212300 24008KT P6SM SCT040=



000
FTUS41 KCTP 211143
TAFIPT
TAF
KIPT 211143Z 2112/2212 27009KT P6SM SKC
     FM211500 27012G24KT P6SM SCT050
     FM212100 25006KT P6SM SKC=



000
FTUS41 KCTP 211143
TAFAOO
TAF
KAOO 211143Z 2112/2212 30012G17KT P6SM BKN029
     FM211400 30012G24KT P6SM SCT050
     FM212300 25006KT P6SM SKC=



000
FTUS41 KCTP 211143
TAFJST
TAF
KJST 211143Z 2112/2212 28015G21KT P6SM VCSH BKN019 OVC026
     FM211900 24010G20KT P6SM SCT040
     FM212300 24008KT P6SM SCT040=



000
FTUS41 KCTP 211143
TAFUNV
TAF
KUNV 211143Z 2112/2212 28012KT P6SM SCT016 BKN035
     FM211400 29012G22KT P6SM SCT050
     FM212300 25006KT P6SM SKC=



000
FTUS41 KCTP 211143
TAFMDT
TAF
KMDT 211143Z 2112/2212 27006KT P6SM FEW060
     FM211400 30016G25KT P6SM SKC
     FM220000 25006KT P6SM SKC=



000
FTUS41 KCTP 211143
TAFUNV
TAF
KUNV 211143Z 2112/2212 28012KT P6SM SCT016 BKN035
     FM211400 29012G22KT P6SM SCT050
     FM212300 25006KT P6SM SKC=



000
FTUS41 KCTP 211143
TAFBFD
TAF
KBFD 211143Z 2112/2212 27004KT P6SM VCSH SCT013 SCT019
     FM211800 27008KT P6SM SCT040
     FM220000 27003KT P6SM OVC050=



000
FTUS41 KCTP 211143
TAFAOO
TAF
KAOO 211143Z 2112/2212 30012G17KT P6SM BKN029
     FM211400 30012G24KT P6SM SCT050
     FM212300 25006KT P6SM SKC=



000
FTUS41 KCTP 211143
TAFBFD
TAF
KBFD 211143Z 2112/2212 27004KT P6SM VCSH SCT013 SCT019
     FM211800 27008KT P6SM SCT040
     FM220000 27003KT P6SM OVC050=



000
FTUS41 KCTP 211143
TAFIPT
TAF
KIPT 211143Z 2112/2212 27009KT P6SM SKC
     FM211500 27012G24KT P6SM SCT050
     FM212100 25006KT P6SM SKC=



000
FTUS41 KCTP 211143
TAFMDT
TAF
KMDT 211143Z 2112/2212 27006KT P6SM FEW060
     FM211400 30016G25KT P6SM SKC
     FM220000 25006KT P6SM SKC=



000
FTUS41 KCTP 210949 AAB
TAFBFD
TAF AMD
KBFD 210949Z 2110/2206 28007KT 1 1/2SM -SN OVC018
     FM211200 28006KT 5SM -SHSN OVC025
     FM211800 27008KT P6SM SCT040=



000
FTUS41 KCTP 210949 AAA
TAFJST
TAF AMD
KJST 210949Z 2110/2206 29012KT P6SM OVC023
     FM211200 28012G21KT P6SM VCSH SCT025 OVC040
     FM212100 24004KT P6SM SCT040=



000
FTUS41 KCTP 210949 AAA
TAFUNV
TAF AMD
KUNV 210949Z 2110/2206 28011G21KT P6SM -SN SCT023 BKN035 OVC045
     FM211400 29012G22KT P6SM SCT050=



000
FTUS41 KCTP 210949 AAA
TAFAOO
TAF AMD
KAOO 210949Z 2110/2206 28018G28KT P6SM OVC035
     FM211100 29012G18KT P6SM -SHSN BKN040
     FM211400 30012G24KT P6SM SCT050=



000
FTUS41 KCTP 210949 AAA
TAFJST
TAF AMD
KJST 210949Z 2110/2206 29012KT P6SM OVC023
     FM211200 28012G21KT P6SM VCSH SCT025 OVC040
     FM212100 24004KT P6SM SCT040=



000
FTUS41 KCTP 210949 AAB
TAFBFD
TAF AMD
KBFD 210949Z 2110/2206 28007KT 1 1/2SM -SN OVC018
     FM211200 28006KT 5SM -SHSN OVC025
     FM211800 27008KT P6SM SCT040=



000
FTUS41 KCTP 210949 AAA
TAFIPT
TAF AMD
KIPT 210949Z 2110/2206 27008KT P6SM SCT045
     FM211500 27012G24KT P6SM SCT050=



000
FTUS41 KCTP 210949 AAA
TAFMDT
TAF AMD
KMDT 210949Z 2110/2206 28007KT P6SM FEW050
     FM211400 30016G25KT P6SM SKC=



000
FTUS41 KCTP 210949 AAA
TAFAOO
TAF AMD
KAOO 210949Z 2110/2206 28018G28KT P6SM OVC035
     FM211100 29012G18KT P6SM -SHSN BKN040
     FM211400 30012G24KT P6SM SCT050=



000
FTUS41 KCTP 210949 AAA
TAFIPT
TAF AMD
KIPT 210949Z 2110/2206 27008KT P6SM SCT045
     FM211500 27012G24KT P6SM SCT050=



000
FTUS41 KCTP 210949 AAA
TAFUNV
TAF AMD
KUNV 210949Z 2110/2206 28011G21KT P6SM -SN SCT023 BKN035 OVC045
     FM211400 29012G22KT P6SM SCT050=



000
FTUS41 KCTP 210949 AAA
TAFMDT
TAF AMD
KMDT 210949Z 2110/2206 28007KT P6SM FEW050
     FM211400 30016G25KT P6SM SKC=



    US Dept of Commerce
    National Oceanic and Atmospheric Administration
    National Weather Service
    1325 East West Highway
    Silver Spring, MD 20910
    Page Author: NWS Internet Services Team
Disclaimer
Information Quality
Credits
Glossary
Privacy Policy
Freedom of Information Act (FOIA)
About Us
Career Opportunities